<?xml version="1.0" encoding="UTF-8" standalone="no" ?>
<gpx xmlns="http://www.topografix.com/GPX/1/1" xmlns:xsi="http://www.w3.org/2001/XMLSchema-instance" xsi:schemaLocation="http://www.topografix.com/GPX/1/1 http://www.topografix.com/GPX/1/1/gpx.xsd" version="1.1" creator="VisuGPX - https://www.visugpx.com">
  <metadata>
    <name>debut-bellevue-terrasse-maison-corrigé</name>
  </metadata>
  <trk>
    <name><![CDATA[debut-bellevue-terrasse-maison-corrigé]]></name>
    <extensions>
      <line xmlns="http://www.topografix.com/GPX/gpx_style/0/2">
        <color>0000FF</color>
        <width>4</width>
      </line>
    </extensions>
    <trkseg>
      <trkpt lat="45.45418" lon="4.37885">
        <ele>523.09</ele>
        <time>2022-01-27T15:09:30Z</time>
      </trkpt>
      <trkpt lat="45.45418" lon="4.37886">
        <ele>523.09</ele>
        <time>2022-01-27T15:09:31Z</time>
      </trkpt>
      <trkpt lat="45.45415" lon="4.37889">
        <ele>522.13</ele>
        <time>2022-01-27T15:09:48Z</time>
      </trkpt>
      <trkpt lat="45.45417" lon="4.37893">
        <ele>522.13</ele>
        <time>2022-01-27T15:10:07Z</time>
      </trkpt>
      <trkpt lat="45.45419" lon="4.37889">
        <ele>522.61</ele>
        <time>2022-01-27T15:10:27Z</time>
      </trkpt>
      <trkpt lat="45.45419" lon="4.37889">
        <ele>522.61</ele>
        <time>2022-01-27T15:10:52Z</time>
      </trkpt>
      <trkpt lat="45.45417" lon="4.3789">
        <ele>522.61</ele>
        <time>2022-01-27T15:11:01Z</time>
      </trkpt>
      <trkpt lat="45.45415" lon="4.37898">
        <ele>522.61</ele>
        <time>2022-01-27T15:11:09Z</time>
      </trkpt>
      <trkpt lat="45.45412" lon="4.37894">
        <ele>521.65</ele>
        <time>2022-01-27T15:11:10Z</time>
      </trkpt>
      <trkpt lat="45.45409" lon="4.37886">
        <ele>521.17</ele>
        <time>2022-01-27T15:11:12Z</time>
      </trkpt>
      <trkpt lat="45.45393" lon="4.37868">
        <ele>520.69</ele>
        <time>2022-01-27T15:11:17Z</time>
      </trkpt>
      <trkpt lat="45.45388" lon="4.3787">
        <ele>520.69</ele>
        <time>2022-01-27T15:11:18Z</time>
      </trkpt>
      <trkpt lat="45.45384" lon="4.3787">
        <ele>520.69</ele>
        <time>2022-01-27T15:11:19Z</time>
      </trkpt>
      <trkpt lat="45.45369" lon="4.37864">
        <ele>520.69</ele>
        <time>2022-01-27T15:11:24Z</time>
      </trkpt>
      <trkpt lat="45.45365" lon="4.37865">
        <ele>520.69</ele>
        <time>2022-01-27T15:11:25Z</time>
      </trkpt>
      <trkpt lat="45.45362" lon="4.37865">
        <ele>520.69</ele>
        <time>2022-01-27T15:11:26Z</time>
      </trkpt>
      <trkpt lat="45.45323" lon="4.37864">
        <ele>520.69</ele>
        <time>2022-01-27T15:11:37Z</time>
      </trkpt>
      <trkpt lat="45.45277" lon="4.37872">
        <ele>520.69</ele>
        <time>2022-01-27T15:11:49Z</time>
      </trkpt>
      <trkpt lat="45.45234" lon="4.37872">
        <ele>521.65</ele>
        <time>2022-01-27T15:12:02Z</time>
      </trkpt>
      <trkpt lat="45.45203" lon="4.3788">
        <ele>520.21</ele>
        <time>2022-01-27T15:12:12Z</time>
      </trkpt>
      <trkpt lat="45.4517" lon="4.37906">
        <ele>518.77</ele>
        <time>2022-01-27T15:12:23Z</time>
      </trkpt>
      <trkpt lat="45.45169" lon="4.37907">
        <ele>518.29</ele>
        <time>2022-01-27T15:12:24Z</time>
      </trkpt>
      <trkpt lat="45.45137" lon="4.37921">
        <ele>516.85</ele>
        <time>2022-01-27T15:12:34Z</time>
      </trkpt>
      <trkpt lat="45.4513" lon="4.37925">
        <ele>516.37</ele>
        <time>2022-01-27T15:12:43Z</time>
      </trkpt>
      <trkpt lat="45.45126" lon="4.37927">
        <ele>516.37</ele>
        <time>2022-01-27T15:12:47Z</time>
      </trkpt>
      <trkpt lat="45.45108" lon="4.37943">
        <ele>514.92</ele>
        <time>2022-01-27T15:12:55Z</time>
      </trkpt>
      <trkpt lat="45.45068" lon="4.37949">
        <ele>514.92</ele>
        <time>2022-01-27T15:13:07Z</time>
      </trkpt>
      <trkpt lat="45.45046" lon="4.37957">
        <ele>513.96</ele>
        <time>2022-01-27T15:13:14Z</time>
      </trkpt>
      <trkpt lat="45.45044" lon="4.37956">
        <ele>513.48</ele>
        <time>2022-01-27T15:13:15Z</time>
      </trkpt>
      <trkpt lat="45.45036" lon="4.37951">
        <ele>513.48</ele>
        <time>2022-01-27T15:13:19Z</time>
      </trkpt>
      <trkpt lat="45.45026" lon="4.37955">
        <ele>513</ele>
        <time>2022-01-27T15:13:23Z</time>
      </trkpt>
      <trkpt lat="45.44989" lon="4.37952">
        <ele>515.4</ele>
        <time>2022-01-27T15:13:38Z</time>
      </trkpt>
      <trkpt lat="45.44965" lon="4.37946">
        <ele>515.4</ele>
        <time>2022-01-27T15:13:45Z</time>
      </trkpt>
      <trkpt lat="45.44964" lon="4.37948">
        <ele>515.4</ele>
        <time>2022-01-27T15:13:46Z</time>
      </trkpt>
      <trkpt lat="45.44962" lon="4.37949">
        <ele>515.4</ele>
        <time>2022-01-27T15:13:47Z</time>
      </trkpt>
      <trkpt lat="45.44959" lon="4.37951">
        <ele>515.4</ele>
        <time>2022-01-27T15:13:48Z</time>
      </trkpt>
      <trkpt lat="45.44957" lon="4.37951">
        <ele>513.96</ele>
        <time>2022-01-27T15:13:49Z</time>
      </trkpt>
      <trkpt lat="45.44954" lon="4.37951">
        <ele>513.96</ele>
        <time>2022-01-27T15:13:50Z</time>
      </trkpt>
      <trkpt lat="45.44913" lon="4.37962">
        <ele>513</ele>
        <time>2022-01-27T15:14:04Z</time>
      </trkpt>
      <trkpt lat="45.44864" lon="4.37971">
        <ele>512.52</ele>
        <time>2022-01-27T15:14:18Z</time>
      </trkpt>
      <trkpt lat="45.44824" lon="4.37987">
        <ele>512.52</ele>
        <time>2022-01-27T15:14:34Z</time>
      </trkpt>
      <trkpt lat="45.4478" lon="4.38015">
        <ele>513.48</ele>
        <time>2022-01-27T15:14:46Z</time>
      </trkpt>
      <trkpt lat="45.44759" lon="4.38022">
        <ele>513.48</ele>
        <time>2022-01-27T15:14:56Z</time>
      </trkpt>
      <trkpt lat="45.44757" lon="4.38022">
        <ele>513.48</ele>
        <time>2022-01-27T15:14:57Z</time>
      </trkpt>
      <trkpt lat="45.44755" lon="4.38021">
        <ele>513.48</ele>
        <time>2022-01-27T15:14:58Z</time>
      </trkpt>
      <trkpt lat="45.44729" lon="4.38024">
        <ele>513.48</ele>
        <time>2022-01-27T15:15:09Z</time>
      </trkpt>
      <trkpt lat="45.447" lon="4.38032">
        <ele>513.48</ele>
        <time>2022-01-27T15:15:23Z</time>
      </trkpt>
      <trkpt lat="45.44691" lon="4.38048">
        <ele>513.96</ele>
        <time>2022-01-27T15:15:28Z</time>
      </trkpt>
      <trkpt lat="45.44689" lon="4.38052">
        <ele>513.96</ele>
        <time>2022-01-27T15:15:29Z</time>
      </trkpt>
      <trkpt lat="45.44686" lon="4.38056">
        <ele>513.96</ele>
        <time>2022-01-27T15:15:30Z</time>
      </trkpt>
      <trkpt lat="45.44684" lon="4.3806">
        <ele>513.96</ele>
        <time>2022-01-27T15:15:31Z</time>
      </trkpt>
      <trkpt lat="45.44681" lon="4.38065">
        <ele>513.96</ele>
        <time>2022-01-27T15:15:32Z</time>
      </trkpt>
      <trkpt lat="45.4468" lon="4.38068">
        <ele>513.96</ele>
        <time>2022-01-27T15:15:33Z</time>
      </trkpt>
      <trkpt lat="45.44679" lon="4.38071">
        <ele>513.96</ele>
        <time>2022-01-27T15:15:34Z</time>
      </trkpt>
      <trkpt lat="45.44678" lon="4.38073">
        <ele>513.96</ele>
        <time>2022-01-27T15:15:35Z</time>
      </trkpt>
      <trkpt lat="45.44677" lon="4.38075">
        <ele>513.96</ele>
        <time>2022-01-27T15:15:36Z</time>
      </trkpt>
      <trkpt lat="45.44675" lon="4.38076">
        <ele>513.96</ele>
        <time>2022-01-27T15:15:37Z</time>
      </trkpt>
      <trkpt lat="45.44636" lon="4.38085">
        <ele>513.48</ele>
        <time>2022-01-27T15:15:48Z</time>
      </trkpt>
      <trkpt lat="45.44633" lon="4.38087">
        <ele>513.48</ele>
        <time>2022-01-27T15:15:50Z</time>
      </trkpt>
      <trkpt lat="45.44632" lon="4.38088">
        <ele>513.48</ele>
        <time>2022-01-27T15:15:51Z</time>
      </trkpt>
      <trkpt lat="45.44631" lon="4.3809">
        <ele>513.48</ele>
        <time>2022-01-27T15:15:52Z</time>
      </trkpt>
      <trkpt lat="45.44629" lon="4.38091">
        <ele>513.48</ele>
        <time>2022-01-27T15:15:53Z</time>
      </trkpt>
      <trkpt lat="45.44626" lon="4.38094">
        <ele>513.48</ele>
        <time>2022-01-27T15:15:54Z</time>
      </trkpt>
      <trkpt lat="45.44624" lon="4.38095">
        <ele>513.48</ele>
        <time>2022-01-27T15:15:55Z</time>
      </trkpt>
      <trkpt lat="45.44621" lon="4.38098">
        <ele>513.48</ele>
        <time>2022-01-27T15:15:56Z</time>
      </trkpt>
      <trkpt lat="45.44617" lon="4.38099">
        <ele>513.48</ele>
        <time>2022-01-27T15:15:57Z</time>
      </trkpt>
      <trkpt lat="45.44614" lon="4.381">
        <ele>513.48</ele>
        <time>2022-01-27T15:15:58Z</time>
      </trkpt>
      <trkpt lat="45.4461" lon="4.38101">
        <ele>513.48</ele>
        <time>2022-01-27T15:15:59Z</time>
      </trkpt>
      <trkpt lat="45.44606" lon="4.38102">
        <ele>513.48</ele>
        <time>2022-01-27T15:16:00Z</time>
      </trkpt>
      <trkpt lat="45.4457" lon="4.38101">
        <ele>513.96</ele>
        <time>2022-01-27T15:16:11Z</time>
      </trkpt>
      <trkpt lat="45.44549" lon="4.38069">
        <ele>516.85</ele>
        <time>2022-01-27T15:16:21Z</time>
      </trkpt>
      <trkpt lat="45.44537" lon="4.38042">
        <ele>519.25</ele>
        <time>2022-01-27T15:16:28Z</time>
      </trkpt>
      <trkpt lat="45.44541" lon="4.38045">
        <ele>519.25</ele>
        <time>2022-01-27T15:16:37Z</time>
      </trkpt>
      <trkpt lat="45.44545" lon="4.38011">
        <ele>519.25</ele>
        <time>2022-01-27T15:16:58Z</time>
      </trkpt>
      <trkpt lat="45.44544" lon="4.38008">
        <ele>519.25</ele>
        <time>2022-01-27T15:16:59Z</time>
      </trkpt>
      <trkpt lat="45.44541" lon="4.38006">
        <ele>519.25</ele>
        <time>2022-01-27T15:17:00Z</time>
      </trkpt>
      <trkpt lat="45.44539" lon="4.38003">
        <ele>519.73</ele>
        <time>2022-01-27T15:17:01Z</time>
      </trkpt>
      <trkpt lat="45.44537" lon="4.38">
        <ele>519.73</ele>
        <time>2022-01-27T15:17:02Z</time>
      </trkpt>
      <trkpt lat="45.44518" lon="4.37973">
        <ele>521.17</ele>
        <time>2022-01-27T15:17:10Z</time>
      </trkpt>
      <trkpt lat="45.44488" lon="4.37938">
        <ele>523.09</ele>
        <time>2022-01-27T15:17:21Z</time>
      </trkpt>
      <trkpt lat="45.44445" lon="4.37933">
        <ele>523.09</ele>
        <time>2022-01-27T15:17:32Z</time>
      </trkpt>
      <trkpt lat="45.44423" lon="4.37931">
        <ele>521.65</ele>
        <time>2022-01-27T15:17:37Z</time>
      </trkpt>
      <trkpt lat="45.44396" lon="4.37919">
        <ele>520.21</ele>
        <time>2022-01-27T15:17:45Z</time>
      </trkpt>
      <trkpt lat="45.44365" lon="4.37909">
        <ele>519.25</ele>
        <time>2022-01-27T15:17:55Z</time>
      </trkpt>
      <trkpt lat="45.44354" lon="4.37911">
        <ele>518.77</ele>
        <time>2022-01-27T15:18:08Z</time>
      </trkpt>
      <trkpt lat="45.44309" lon="4.37906">
        <ele>517.33</ele>
        <time>2022-01-27T15:18:19Z</time>
      </trkpt>
      <trkpt lat="45.44272" lon="4.37896">
        <ele>517.33</ele>
        <time>2022-01-27T15:18:29Z</time>
      </trkpt>
      <trkpt lat="45.44236" lon="4.37893">
        <ele>519.25</ele>
        <time>2022-01-27T15:18:39Z</time>
      </trkpt>
      <trkpt lat="45.44232" lon="4.37892">
        <ele>518.77</ele>
        <time>2022-01-27T15:18:40Z</time>
      </trkpt>
      <trkpt lat="45.44184" lon="4.37876">
        <ele>519.73</ele>
        <time>2022-01-27T15:18:54Z</time>
      </trkpt>
      <trkpt lat="45.4414" lon="4.37871">
        <ele>521.17</ele>
        <time>2022-01-27T15:19:06Z</time>
      </trkpt>
      <trkpt lat="45.44091" lon="4.37863">
        <ele>524.06</ele>
        <time>2022-01-27T15:19:20Z</time>
      </trkpt>
      <trkpt lat="45.44051" lon="4.37854">
        <ele>525.5</ele>
        <time>2022-01-27T15:19:32Z</time>
      </trkpt>
      <trkpt lat="45.44011" lon="4.37853">
        <ele>527.42</ele>
        <time>2022-01-27T15:19:43Z</time>
      </trkpt>
      <trkpt lat="45.43968" lon="4.37848">
        <ele>529.34</ele>
        <time>2022-01-27T15:19:55Z</time>
      </trkpt>
      <trkpt lat="45.43962" lon="4.37851">
        <ele>529.82</ele>
        <time>2022-01-27T15:20:05Z</time>
      </trkpt>
      <trkpt lat="45.43958" lon="4.37855">
        <ele>529.82</ele>
        <time>2022-01-27T15:20:23Z</time>
      </trkpt>
      <trkpt lat="45.43942" lon="4.37854">
        <ele>529.82</ele>
        <time>2022-01-27T15:20:36Z</time>
      </trkpt>
      <trkpt lat="45.43894" lon="4.37848">
        <ele>530.3</ele>
        <time>2022-01-27T15:20:49Z</time>
      </trkpt>
      <trkpt lat="45.43847" lon="4.37844">
        <ele>530.3</ele>
        <time>2022-01-27T15:21:02Z</time>
      </trkpt>
      <trkpt lat="45.43802" lon="4.37848">
        <ele>533.19</ele>
        <time>2022-01-27T15:21:16Z</time>
      </trkpt>
      <trkpt lat="45.43795" lon="4.37847">
        <ele>533.19</ele>
        <time>2022-01-27T15:21:29Z</time>
      </trkpt>
      <trkpt lat="45.43779" lon="4.37853">
        <ele>533.19</ele>
        <time>2022-01-27T15:21:48Z</time>
      </trkpt>
      <trkpt lat="45.43757" lon="4.37856">
        <ele>531.75</ele>
        <time>2022-01-27T15:21:55Z</time>
      </trkpt>
      <trkpt lat="45.43726" lon="4.37867">
        <ele>530.79</ele>
        <time>2022-01-27T15:22:07Z</time>
      </trkpt>
      <trkpt lat="45.43726" lon="4.37869">
        <ele>530.79</ele>
        <time>2022-01-27T15:22:20Z</time>
      </trkpt>
      <trkpt lat="45.43723" lon="4.3787">
        <ele>530.79</ele>
        <time>2022-01-27T15:22:21Z</time>
      </trkpt>
      <trkpt lat="45.4372" lon="4.37872">
        <ele>530.3</ele>
        <time>2022-01-27T15:22:22Z</time>
      </trkpt>
      <trkpt lat="45.43717" lon="4.37875">
        <ele>530.3</ele>
        <time>2022-01-27T15:22:23Z</time>
      </trkpt>
      <trkpt lat="45.43713" lon="4.37877">
        <ele>530.3</ele>
        <time>2022-01-27T15:22:24Z</time>
      </trkpt>
      <trkpt lat="45.4371" lon="4.37879">
        <ele>530.3</ele>
        <time>2022-01-27T15:22:25Z</time>
      </trkpt>
      <trkpt lat="45.43664" lon="4.379">
        <ele>532.71</ele>
        <time>2022-01-27T15:22:38Z</time>
      </trkpt>
      <trkpt lat="45.43625" lon="4.37922">
        <ele>536.07</ele>
        <time>2022-01-27T15:22:52Z</time>
      </trkpt>
      <trkpt lat="45.43593" lon="4.3794">
        <ele>538.96</ele>
        <time>2022-01-27T15:23:03Z</time>
      </trkpt>
      <trkpt lat="45.43559" lon="4.37959">
        <ele>541.36</ele>
        <time>2022-01-27T15:23:14Z</time>
      </trkpt>
      <trkpt lat="45.43525" lon="4.37967">
        <ele>543.28</ele>
        <time>2022-01-27T15:23:24Z</time>
      </trkpt>
      <trkpt lat="45.43488" lon="4.37951">
        <ele>545.69</ele>
        <time>2022-01-27T15:23:36Z</time>
      </trkpt>
      <trkpt lat="45.43465" lon="4.37944">
        <ele>547.61</ele>
        <time>2022-01-27T15:23:43Z</time>
      </trkpt>
      <trkpt lat="45.43462" lon="4.3794">
        <ele>547.61</ele>
        <time>2022-01-27T15:23:44Z</time>
      </trkpt>
      <trkpt lat="45.4346" lon="4.37938">
        <ele>547.61</ele>
        <time>2022-01-27T15:23:45Z</time>
      </trkpt>
      <trkpt lat="45.43457" lon="4.37936">
        <ele>548.09</ele>
        <time>2022-01-27T15:23:46Z</time>
      </trkpt>
      <trkpt lat="45.43454" lon="4.37936">
        <ele>548.09</ele>
        <time>2022-01-27T15:23:47Z</time>
      </trkpt>
      <trkpt lat="45.43451" lon="4.37935">
        <ele>548.09</ele>
        <time>2022-01-27T15:23:55Z</time>
      </trkpt>
      <trkpt lat="45.43448" lon="4.37938">
        <ele>548.09</ele>
        <time>2022-01-27T15:24:12Z</time>
      </trkpt>
      <trkpt lat="45.43446" lon="4.37938">
        <ele>548.09</ele>
        <time>2022-01-27T15:24:13Z</time>
      </trkpt>
      <trkpt lat="45.43444" lon="4.37936">
        <ele>548.09</ele>
        <time>2022-01-27T15:24:14Z</time>
      </trkpt>
      <trkpt lat="45.43441" lon="4.37935">
        <ele>548.09</ele>
        <time>2022-01-27T15:24:15Z</time>
      </trkpt>
      <trkpt lat="45.4344" lon="4.37935">
        <ele>548.09</ele>
        <time>2022-01-27T15:24:16Z</time>
      </trkpt>
      <trkpt lat="45.43438" lon="4.37936">
        <ele>548.09</ele>
        <time>2022-01-27T15:24:17Z</time>
      </trkpt>
      <trkpt lat="45.43437" lon="4.37936">
        <ele>548.09</ele>
        <time>2022-01-27T15:24:18Z</time>
      </trkpt>
      <trkpt lat="45.43435" lon="4.37936">
        <ele>548.09</ele>
        <time>2022-01-27T15:24:19Z</time>
      </trkpt>
      <trkpt lat="45.43402" lon="4.37935">
        <ele>548.57</ele>
        <time>2022-01-27T15:24:28Z</time>
      </trkpt>
      <trkpt lat="45.43369" lon="4.3794">
        <ele>550.01</ele>
        <time>2022-01-27T15:24:39Z</time>
      </trkpt>
      <trkpt lat="45.4336" lon="4.37956">
        <ele>550.49</ele>
        <time>2022-01-27T15:24:55Z</time>
      </trkpt>
      <trkpt lat="45.43359" lon="4.37957">
        <ele>550.49</ele>
        <time>2022-01-27T15:24:56Z</time>
      </trkpt>
      <trkpt lat="45.43357" lon="4.37958">
        <ele>550.49</ele>
        <time>2022-01-27T15:24:57Z</time>
      </trkpt>
      <trkpt lat="45.43354" lon="4.37959">
        <ele>550.49</ele>
        <time>2022-01-27T15:24:58Z</time>
      </trkpt>
      <trkpt lat="45.43352" lon="4.37959">
        <ele>550.49</ele>
        <time>2022-01-27T15:24:59Z</time>
      </trkpt>
      <trkpt lat="45.4335" lon="4.3796">
        <ele>550.49</ele>
        <time>2022-01-27T15:25:00Z</time>
      </trkpt>
      <trkpt lat="45.43348" lon="4.37959">
        <ele>550.49</ele>
        <time>2022-01-27T15:25:01Z</time>
      </trkpt>
      <trkpt lat="45.43347" lon="4.37958">
        <ele>550.49</ele>
        <time>2022-01-27T15:25:02Z</time>
      </trkpt>
      <trkpt lat="45.43345" lon="4.37958">
        <ele>550.49</ele>
        <time>2022-01-27T15:25:03Z</time>
      </trkpt>
      <trkpt lat="45.43343" lon="4.37959">
        <ele>550.49</ele>
        <time>2022-01-27T15:25:04Z</time>
      </trkpt>
      <trkpt lat="45.43341" lon="4.37959">
        <ele>550.49</ele>
        <time>2022-01-27T15:25:05Z</time>
      </trkpt>
      <trkpt lat="45.43338" lon="4.37959">
        <ele>550.49</ele>
        <time>2022-01-27T15:25:06Z</time>
      </trkpt>
      <trkpt lat="45.43336" lon="4.3796">
        <ele>550.49</ele>
        <time>2022-01-27T15:25:07Z</time>
      </trkpt>
      <trkpt lat="45.43333" lon="4.37961">
        <ele>550.49</ele>
        <time>2022-01-27T15:25:08Z</time>
      </trkpt>
      <trkpt lat="45.43331" lon="4.37963">
        <ele>550.49</ele>
        <time>2022-01-27T15:25:09Z</time>
      </trkpt>
      <trkpt lat="45.43328" lon="4.37964">
        <ele>550.49</ele>
        <time>2022-01-27T15:25:10Z</time>
      </trkpt>
      <trkpt lat="45.43325" lon="4.37967">
        <ele>550.49</ele>
        <time>2022-01-27T15:25:11Z</time>
      </trkpt>
      <trkpt lat="45.43323" lon="4.37968">
        <ele>550.49</ele>
        <time>2022-01-27T15:25:12Z</time>
      </trkpt>
      <trkpt lat="45.43321" lon="4.37969">
        <ele>550.49</ele>
        <time>2022-01-27T15:25:13Z</time>
      </trkpt>
      <trkpt lat="45.43319" lon="4.3797">
        <ele>550.49</ele>
        <time>2022-01-27T15:25:14Z</time>
      </trkpt>
      <trkpt lat="45.43308" lon="4.37975">
        <ele>550.01</ele>
        <time>2022-01-27T15:25:19Z</time>
      </trkpt>
      <trkpt lat="45.43306" lon="4.37977">
        <ele>550.01</ele>
        <time>2022-01-27T15:25:20Z</time>
      </trkpt>
      <trkpt lat="45.43303" lon="4.37977">
        <ele>550.01</ele>
        <time>2022-01-27T15:25:21Z</time>
      </trkpt>
      <trkpt lat="45.43301" lon="4.37978">
        <ele>550.01</ele>
        <time>2022-01-27T15:25:22Z</time>
      </trkpt>
      <trkpt lat="45.43298" lon="4.3798">
        <ele>550.01</ele>
        <time>2022-01-27T15:25:23Z</time>
      </trkpt>
      <trkpt lat="45.43296" lon="4.37981">
        <ele>550.01</ele>
        <time>2022-01-27T15:25:24Z</time>
      </trkpt>
      <trkpt lat="45.43293" lon="4.37983">
        <ele>550.01</ele>
        <time>2022-01-27T15:25:25Z</time>
      </trkpt>
      <trkpt lat="45.43281" lon="4.37993">
        <ele>550.01</ele>
        <time>2022-01-27T15:25:31Z</time>
      </trkpt>
      <trkpt lat="45.4328" lon="4.37995">
        <ele>550.01</ele>
        <time>2022-01-27T15:25:32Z</time>
      </trkpt>
      <trkpt lat="45.43278" lon="4.37997">
        <ele>550.01</ele>
        <time>2022-01-27T15:25:33Z</time>
      </trkpt>
      <trkpt lat="45.43277" lon="4.37999">
        <ele>550.01</ele>
        <time>2022-01-27T15:25:34Z</time>
      </trkpt>
      <trkpt lat="45.43275" lon="4.38">
        <ele>550.01</ele>
        <time>2022-01-27T15:25:35Z</time>
      </trkpt>
      <trkpt lat="45.43273" lon="4.38001">
        <ele>550.01</ele>
        <time>2022-01-27T15:25:36Z</time>
      </trkpt>
      <trkpt lat="45.43269" lon="4.38005">
        <ele>550.01</ele>
        <time>2022-01-27T15:25:40Z</time>
      </trkpt>
      <trkpt lat="45.43267" lon="4.38006">
        <ele>550.01</ele>
        <time>2022-01-27T15:25:41Z</time>
      </trkpt>
      <trkpt lat="45.43265" lon="4.38009">
        <ele>550.01</ele>
        <time>2022-01-27T15:25:42Z</time>
      </trkpt>
      <trkpt lat="45.4324" lon="4.38025">
        <ele>549.53</ele>
        <time>2022-01-27T15:25:51Z</time>
      </trkpt>
      <trkpt lat="45.43238" lon="4.38026">
        <ele>549.53</ele>
        <time>2022-01-27T15:25:52Z</time>
      </trkpt>
      <trkpt lat="45.43236" lon="4.38027">
        <ele>548.57</ele>
        <time>2022-01-27T15:25:53Z</time>
      </trkpt>
      <trkpt lat="45.43234" lon="4.38026">
        <ele>548.57</ele>
        <time>2022-01-27T15:25:54Z</time>
      </trkpt>
      <trkpt lat="45.43232" lon="4.38027">
        <ele>548.57</ele>
        <time>2022-01-27T15:25:55Z</time>
      </trkpt>
      <trkpt lat="45.43224" lon="4.38026">
        <ele>548.09</ele>
        <time>2022-01-27T15:26:01Z</time>
      </trkpt>
      <trkpt lat="45.43222" lon="4.38026">
        <ele>548.09</ele>
        <time>2022-01-27T15:26:02Z</time>
      </trkpt>
      <trkpt lat="45.4322" lon="4.38027">
        <ele>548.09</ele>
        <time>2022-01-27T15:26:04Z</time>
      </trkpt>
      <trkpt lat="45.43202" lon="4.38036">
        <ele>548.09</ele>
        <time>2022-01-27T15:26:15Z</time>
      </trkpt>
      <trkpt lat="45.43199" lon="4.38038">
        <ele>548.09</ele>
        <time>2022-01-27T15:26:16Z</time>
      </trkpt>
      <trkpt lat="45.43198" lon="4.3804">
        <ele>548.09</ele>
        <time>2022-01-27T15:26:17Z</time>
      </trkpt>
      <trkpt lat="45.43196" lon="4.38042">
        <ele>548.09</ele>
        <time>2022-01-27T15:26:18Z</time>
      </trkpt>
      <trkpt lat="45.43194" lon="4.38043">
        <ele>548.09</ele>
        <time>2022-01-27T15:26:19Z</time>
      </trkpt>
      <trkpt lat="45.43192" lon="4.38045">
        <ele>548.09</ele>
        <time>2022-01-27T15:26:20Z</time>
      </trkpt>
      <trkpt lat="45.43158" lon="4.38062">
        <ele>547.13</ele>
        <time>2022-01-27T15:26:30Z</time>
      </trkpt>
      <trkpt lat="45.43116" lon="4.38074">
        <ele>546.17</ele>
        <time>2022-01-27T15:26:42Z</time>
      </trkpt>
      <trkpt lat="45.43072" lon="4.38078">
        <ele>546.17</ele>
        <time>2022-01-27T15:26:54Z</time>
      </trkpt>
      <trkpt lat="45.43042" lon="4.38085">
        <ele>547.61</ele>
        <time>2022-01-27T15:27:03Z</time>
      </trkpt>
      <trkpt lat="45.43" lon="4.38097">
        <ele>548.57</ele>
        <time>2022-01-27T15:27:15Z</time>
      </trkpt>
      <trkpt lat="45.42958" lon="4.38112">
        <ele>550.01</ele>
        <time>2022-01-27T15:27:27Z</time>
      </trkpt>
      <trkpt lat="45.42927" lon="4.3813">
        <ele>551.45</ele>
        <time>2022-01-27T15:27:38Z</time>
      </trkpt>
      <trkpt lat="45.42896" lon="4.38153">
        <ele>552.41</ele>
        <time>2022-01-27T15:27:50Z</time>
      </trkpt>
      <trkpt lat="45.42871" lon="4.38189">
        <ele>551.93</ele>
        <time>2022-01-27T15:28:00Z</time>
      </trkpt>
      <trkpt lat="45.42854" lon="4.38208">
        <ele>552.41</ele>
        <time>2022-01-27T15:28:08Z</time>
      </trkpt>
      <trkpt lat="45.42846" lon="4.3822">
        <ele>552.41</ele>
        <time>2022-01-27T15:28:11Z</time>
      </trkpt>
      <trkpt lat="45.42832" lon="4.38243">
        <ele>552.9</ele>
        <time>2022-01-27T15:28:21Z</time>
      </trkpt>
      <trkpt lat="45.42823" lon="4.38261">
        <ele>552.9</ele>
        <time>2022-01-27T15:28:28Z</time>
      </trkpt>
      <trkpt lat="45.42822" lon="4.38262">
        <ele>552.9</ele>
        <time>2022-01-27T15:28:29Z</time>
      </trkpt>
      <trkpt lat="45.42821" lon="4.38264">
        <ele>553.38</ele>
        <time>2022-01-27T15:28:30Z</time>
      </trkpt>
      <trkpt lat="45.42798" lon="4.38306">
        <ele>554.34</ele>
        <time>2022-01-27T15:28:39Z</time>
      </trkpt>
      <trkpt lat="45.42789" lon="4.38324">
        <ele>555.3</ele>
        <time>2022-01-27T15:28:46Z</time>
      </trkpt>
      <trkpt lat="45.42778" lon="4.38345">
        <ele>555.3</ele>
        <time>2022-01-27T15:28:49Z</time>
      </trkpt>
      <trkpt lat="45.42776" lon="4.38346">
        <ele>555.3</ele>
        <time>2022-01-27T15:28:50Z</time>
      </trkpt>
      <trkpt lat="45.42775" lon="4.38348">
        <ele>555.3</ele>
        <time>2022-01-27T15:28:51Z</time>
      </trkpt>
      <trkpt lat="45.42773" lon="4.38351">
        <ele>555.3</ele>
        <time>2022-01-27T15:28:52Z</time>
      </trkpt>
      <trkpt lat="45.42771" lon="4.38354">
        <ele>555.78</ele>
        <time>2022-01-27T15:28:53Z</time>
      </trkpt>
      <trkpt lat="45.42765" lon="4.38375">
        <ele>556.26</ele>
        <time>2022-01-27T15:29:04Z</time>
      </trkpt>
      <trkpt lat="45.42752" lon="4.38416">
        <ele>556.26</ele>
        <time>2022-01-27T15:29:13Z</time>
      </trkpt>
      <trkpt lat="45.42737" lon="4.38473">
        <ele>556.74</ele>
        <time>2022-01-27T15:29:26Z</time>
      </trkpt>
      <trkpt lat="45.42732" lon="4.38518">
        <ele>556.74</ele>
        <time>2022-01-27T15:29:36Z</time>
      </trkpt>
      <trkpt lat="45.42727" lon="4.3855">
        <ele>555.3</ele>
        <time>2022-01-27T15:29:45Z</time>
      </trkpt>
      <trkpt lat="45.42726" lon="4.38553">
        <ele>555.3</ele>
        <time>2022-01-27T15:29:46Z</time>
      </trkpt>
      <trkpt lat="45.42724" lon="4.38557">
        <ele>555.3</ele>
        <time>2022-01-27T15:29:47Z</time>
      </trkpt>
      <trkpt lat="45.42722" lon="4.3856">
        <ele>555.3</ele>
        <time>2022-01-27T15:29:48Z</time>
      </trkpt>
      <trkpt lat="45.42721" lon="4.38564">
        <ele>555.3</ele>
        <time>2022-01-27T15:29:49Z</time>
      </trkpt>
      <trkpt lat="45.4271" lon="4.38605">
        <ele>554.34</ele>
        <time>2022-01-27T15:29:59Z</time>
      </trkpt>
      <trkpt lat="45.42698" lon="4.38657">
        <ele>551.45</ele>
        <time>2022-01-27T15:30:11Z</time>
      </trkpt>
      <trkpt lat="45.42684" lon="4.38693">
        <ele>548.09</ele>
        <time>2022-01-27T15:30:20Z</time>
      </trkpt>
      <trkpt lat="45.42661" lon="4.38727">
        <ele>545.2</ele>
        <time>2022-01-27T15:30:30Z</time>
      </trkpt>
      <trkpt lat="45.42626" lon="4.38759">
        <ele>543.28</ele>
        <time>2022-01-27T15:30:41Z</time>
      </trkpt>
      <trkpt lat="45.42595" lon="4.38783">
        <ele>543.28</ele>
        <time>2022-01-27T15:30:51Z</time>
      </trkpt>
      <trkpt lat="45.42563" lon="4.38811">
        <ele>542.8</ele>
        <time>2022-01-27T15:31:02Z</time>
      </trkpt>
      <trkpt lat="45.4253" lon="4.38831">
        <ele>543.76</ele>
        <time>2022-01-27T15:31:13Z</time>
      </trkpt>
      <trkpt lat="45.42482" lon="4.38854">
        <ele>543.76</ele>
        <time>2022-01-27T15:31:27Z</time>
      </trkpt>
      <trkpt lat="45.42445" lon="4.3888">
        <ele>543.28</ele>
        <time>2022-01-27T15:31:38Z</time>
      </trkpt>
      <trkpt lat="45.42414" lon="4.38897">
        <ele>543.76</ele>
        <time>2022-01-27T15:31:50Z</time>
      </trkpt>
      <trkpt lat="45.42413" lon="4.38898">
        <ele>543.76</ele>
        <time>2022-01-27T15:31:51Z</time>
      </trkpt>
      <trkpt lat="45.42412" lon="4.38899">
        <ele>543.76</ele>
        <time>2022-01-27T15:31:52Z</time>
      </trkpt>
      <trkpt lat="45.4241" lon="4.38899">
        <ele>543.76</ele>
        <time>2022-01-27T15:31:53Z</time>
      </trkpt>
      <trkpt lat="45.42401" lon="4.38903">
        <ele>543.28</ele>
        <time>2022-01-27T15:32:07Z</time>
      </trkpt>
      <trkpt lat="45.42391" lon="4.38926">
        <ele>543.28</ele>
        <time>2022-01-27T15:32:24Z</time>
      </trkpt>
      <trkpt lat="45.4239" lon="4.38928">
        <ele>543.28</ele>
        <time>2022-01-27T15:32:25Z</time>
      </trkpt>
      <trkpt lat="45.42389" lon="4.3893">
        <ele>543.28</ele>
        <time>2022-01-27T15:32:26Z</time>
      </trkpt>
      <trkpt lat="45.42384" lon="4.38941">
        <ele>543.28</ele>
        <time>2022-01-27T15:32:36Z</time>
      </trkpt>
      <trkpt lat="45.42383" lon="4.38943">
        <ele>543.28</ele>
        <time>2022-01-27T15:32:37Z</time>
      </trkpt>
      <trkpt lat="45.42381" lon="4.38947">
        <ele>543.28</ele>
        <time>2022-01-27T15:32:38Z</time>
      </trkpt>
      <trkpt lat="45.42381" lon="4.3895">
        <ele>543.28</ele>
        <time>2022-01-27T15:32:39Z</time>
      </trkpt>
      <trkpt lat="45.4238" lon="4.38955">
        <ele>543.28</ele>
        <time>2022-01-27T15:32:40Z</time>
      </trkpt>
      <trkpt lat="45.42379" lon="4.3896">
        <ele>541.84</ele>
        <time>2022-01-27T15:32:41Z</time>
      </trkpt>
      <trkpt lat="45.42361" lon="4.38994">
        <ele>540.88</ele>
        <time>2022-01-27T15:32:50Z</time>
      </trkpt>
      <trkpt lat="45.42346" lon="4.39017">
        <ele>540.88</ele>
        <time>2022-01-27T15:32:58Z</time>
      </trkpt>
      <trkpt lat="45.42343" lon="4.39032">
        <ele>540.88</ele>
        <time>2022-01-27T15:33:04Z</time>
      </trkpt>
      <trkpt lat="45.42341" lon="4.39035">
        <ele>540.4</ele>
        <time>2022-01-27T15:33:05Z</time>
      </trkpt>
      <trkpt lat="45.42339" lon="4.39038">
        <ele>540.4</ele>
        <time>2022-01-27T15:33:06Z</time>
      </trkpt>
      <trkpt lat="45.42336" lon="4.39042">
        <ele>540.4</ele>
        <time>2022-01-27T15:33:07Z</time>
      </trkpt>
      <trkpt lat="45.42332" lon="4.39046">
        <ele>540.4</ele>
        <time>2022-01-27T15:33:08Z</time>
      </trkpt>
      <trkpt lat="45.42328" lon="4.39048">
        <ele>540.4</ele>
        <time>2022-01-27T15:33:09Z</time>
      </trkpt>
      <trkpt lat="45.42316" lon="4.39072">
        <ele>539.92</ele>
        <time>2022-01-27T15:33:20Z</time>
      </trkpt>
      <trkpt lat="45.42319" lon="4.39079">
        <ele>539.92</ele>
        <time>2022-01-27T15:33:43Z</time>
      </trkpt>
      <trkpt lat="45.42326" lon="4.39084">
        <ele>539.92</ele>
        <time>2022-01-27T15:33:56Z</time>
      </trkpt>
      <trkpt lat="45.42327" lon="4.39086">
        <ele>539.92</ele>
        <time>2022-01-27T15:34:06Z</time>
      </trkpt>
      <trkpt lat="45.42328" lon="4.39088">
        <ele>539.44</ele>
        <time>2022-01-27T15:34:07Z</time>
      </trkpt>
      <trkpt lat="45.42328" lon="4.39089">
        <ele>539.44</ele>
        <time>2022-01-27T15:34:08Z</time>
      </trkpt>
      <trkpt lat="45.42339" lon="4.39113">
        <ele>536.55</ele>
        <time>2022-01-27T15:34:18Z</time>
      </trkpt>
      <trkpt lat="45.42341" lon="4.3912">
        <ele>535.59</ele>
        <time>2022-01-27T15:34:20Z</time>
      </trkpt>
      <trkpt lat="45.42342" lon="4.39122">
        <ele>535.11</ele>
        <time>2022-01-27T15:34:21Z</time>
      </trkpt>
      <trkpt lat="45.42343" lon="4.39125">
        <ele>534.63</ele>
        <time>2022-01-27T15:34:22Z</time>
      </trkpt>
      <trkpt lat="45.42345" lon="4.39127">
        <ele>534.63</ele>
        <time>2022-01-27T15:34:23Z</time>
      </trkpt>
      <trkpt lat="45.42344" lon="4.39134">
        <ele>534.63</ele>
        <time>2022-01-27T15:34:24Z</time>
      </trkpt>
      <trkpt lat="45.42337" lon="4.3915">
        <ele>534.15</ele>
        <time>2022-01-27T15:34:31Z</time>
      </trkpt>
      <trkpt lat="45.42335" lon="4.39151">
        <ele>534.63</ele>
        <time>2022-01-27T15:34:32Z</time>
      </trkpt>
      <trkpt lat="45.42332" lon="4.39153">
        <ele>534.63</ele>
        <time>2022-01-27T15:34:33Z</time>
      </trkpt>
      <trkpt lat="45.42329" lon="4.39153">
        <ele>534.63</ele>
        <time>2022-01-27T15:34:34Z</time>
      </trkpt>
      <trkpt lat="45.42325" lon="4.39155">
        <ele>534.63</ele>
        <time>2022-01-27T15:34:35Z</time>
      </trkpt>
      <trkpt lat="45.42321" lon="4.39156">
        <ele>534.63</ele>
        <time>2022-01-27T15:34:36Z</time>
      </trkpt>
      <trkpt lat="45.42318" lon="4.39158">
        <ele>534.63</ele>
        <time>2022-01-27T15:34:37Z</time>
      </trkpt>
      <trkpt lat="45.42316" lon="4.39159">
        <ele>534.63</ele>
        <time>2022-01-27T15:34:38Z</time>
      </trkpt>
      <trkpt lat="45.42303" lon="4.39161">
        <ele>534.63</ele>
        <time>2022-01-27T15:34:42Z</time>
      </trkpt>
      <trkpt lat="45.42301" lon="4.39159">
        <ele>534.63</ele>
        <time>2022-01-27T15:34:43Z</time>
      </trkpt>
      <trkpt lat="45.42276" lon="4.3917">
        <ele>534.63</ele>
        <time>2022-01-27T15:34:53Z</time>
      </trkpt>
      <trkpt lat="45.42275" lon="4.3917">
        <ele>536.07</ele>
        <time>2022-01-27T15:34:55Z</time>
      </trkpt>
      <trkpt lat="45.42266" lon="4.39193">
        <ele>536.07</ele>
        <time>2022-01-27T15:35:09Z</time>
      </trkpt>
      <trkpt lat="45.42263" lon="4.39204">
        <ele>536.07</ele>
        <time>2022-01-27T15:35:35Z</time>
      </trkpt>
      <trkpt lat="45.42262" lon="4.392">
        <ele>536.07</ele>
        <time>2022-01-27T15:35:37Z</time>
      </trkpt>
      <trkpt lat="45.42252" lon="4.39197">
        <ele>536.07</ele>
        <time>2022-01-27T15:35:45Z</time>
      </trkpt>
      <trkpt lat="45.4225" lon="4.39197">
        <ele>536.07</ele>
        <time>2022-01-27T15:35:46Z</time>
      </trkpt>
      <trkpt lat="45.42249" lon="4.39197">
        <ele>536.07</ele>
        <time>2022-01-27T15:35:47Z</time>
      </trkpt>
      <trkpt lat="45.42234" lon="4.39194">
        <ele>536.55</ele>
        <time>2022-01-27T15:35:57Z</time>
      </trkpt>
      <trkpt lat="45.42212" lon="4.39199">
        <ele>537.03</ele>
        <time>2022-01-27T15:36:06Z</time>
      </trkpt>
      <trkpt lat="45.42205" lon="4.39202">
        <ele>537.51</ele>
        <time>2022-01-27T15:36:12Z</time>
      </trkpt>
      <trkpt lat="45.42203" lon="4.39202">
        <ele>537.51</ele>
        <time>2022-01-27T15:36:13Z</time>
      </trkpt>
      <trkpt lat="45.42201" lon="4.39202">
        <ele>537.51</ele>
        <time>2022-01-27T15:36:14Z</time>
      </trkpt>
      <trkpt lat="45.42173" lon="4.39203">
        <ele>537.99</ele>
        <time>2022-01-27T15:36:25Z</time>
      </trkpt>
      <trkpt lat="45.42147" lon="4.39199">
        <ele>538.96</ele>
        <time>2022-01-27T15:36:35Z</time>
      </trkpt>
      <trkpt lat="45.42128" lon="4.392">
        <ele>538.96</ele>
        <time>2022-01-27T15:36:43Z</time>
      </trkpt>
      <trkpt lat="45.42127" lon="4.392">
        <ele>538.96</ele>
        <time>2022-01-27T15:36:44Z</time>
      </trkpt>
      <trkpt lat="45.42115" lon="4.39205">
        <ele>538.96</ele>
        <time>2022-01-27T15:36:51Z</time>
      </trkpt>
      <trkpt lat="45.42111" lon="4.39207">
        <ele>538.96</ele>
        <time>2022-01-27T15:36:52Z</time>
      </trkpt>
      <trkpt lat="45.42108" lon="4.39208">
        <ele>538.96</ele>
        <time>2022-01-27T15:36:53Z</time>
      </trkpt>
      <trkpt lat="45.42105" lon="4.39207">
        <ele>538.96</ele>
        <time>2022-01-27T15:36:54Z</time>
      </trkpt>
      <trkpt lat="45.42103" lon="4.39207">
        <ele>538.96</ele>
        <time>2022-01-27T15:36:55Z</time>
      </trkpt>
      <trkpt lat="45.421" lon="4.39205">
        <ele>539.44</ele>
        <time>2022-01-27T15:36:57Z</time>
      </trkpt>
      <trkpt lat="45.42099" lon="4.39203">
        <ele>539.44</ele>
        <time>2022-01-27T15:36:58Z</time>
      </trkpt>
      <trkpt lat="45.42098" lon="4.39199">
        <ele>539.44</ele>
        <time>2022-01-27T15:37:00Z</time>
      </trkpt>
      <trkpt lat="45.42093" lon="4.3919">
        <ele>539.44</ele>
        <time>2022-01-27T15:37:04Z</time>
      </trkpt>
      <trkpt lat="45.42061" lon="4.39189">
        <ele>540.4</ele>
        <time>2022-01-27T15:37:17Z</time>
      </trkpt>
      <trkpt lat="45.42049" lon="4.39191">
        <ele>540.88</ele>
        <time>2022-01-27T15:37:23Z</time>
      </trkpt>
      <trkpt lat="45.42022" lon="4.39199">
        <ele>540.88</ele>
        <time>2022-01-27T15:37:32Z</time>
      </trkpt>
      <trkpt lat="45.42018" lon="4.39197">
        <ele>541.36</ele>
        <time>2022-01-27T15:37:35Z</time>
      </trkpt>
      <trkpt lat="45.4201" lon="4.39195">
        <ele>541.36</ele>
        <time>2022-01-27T15:37:40Z</time>
      </trkpt>
      <trkpt lat="45.42" lon="4.39194">
        <ele>541.36</ele>
        <time>2022-01-27T15:37:44Z</time>
      </trkpt>
      <trkpt lat="45.41991" lon="4.39195">
        <ele>541.84</ele>
        <time>2022-01-27T15:37:50Z</time>
      </trkpt>
      <trkpt lat="45.41955" lon="4.39217">
        <ele>542.32</ele>
        <time>2022-01-27T15:38:02Z</time>
      </trkpt>
      <trkpt lat="45.41928" lon="4.39235">
        <ele>542.32</ele>
        <time>2022-01-27T15:38:10Z</time>
      </trkpt>
      <trkpt lat="45.41905" lon="4.39239">
        <ele>542.8</ele>
        <time>2022-01-27T15:38:18Z</time>
      </trkpt>
      <trkpt lat="45.41862" lon="4.39273">
        <ele>543.76</ele>
        <time>2022-01-27T15:38:29Z</time>
      </trkpt>
      <trkpt lat="45.41854" lon="4.39274">
        <ele>543.76</ele>
        <time>2022-01-27T15:38:31Z</time>
      </trkpt>
      <trkpt lat="45.4185" lon="4.39276">
        <ele>543.76</ele>
        <time>2022-01-27T15:38:32Z</time>
      </trkpt>
      <trkpt lat="45.41817" lon="4.39278">
        <ele>543.76</ele>
        <time>2022-01-27T15:38:43Z</time>
      </trkpt>
      <trkpt lat="45.41806" lon="4.39275">
        <ele>544.72</ele>
        <time>2022-01-27T15:38:48Z</time>
      </trkpt>
      <trkpt lat="45.41805" lon="4.39276">
        <ele>544.72</ele>
        <time>2022-01-27T15:38:49Z</time>
      </trkpt>
      <trkpt lat="45.41803" lon="4.39275">
        <ele>544.72</ele>
        <time>2022-01-27T15:38:50Z</time>
      </trkpt>
      <trkpt lat="45.41795" lon="4.3928">
        <ele>544.72</ele>
        <time>2022-01-27T15:38:54Z</time>
      </trkpt>
      <trkpt lat="45.41792" lon="4.39281">
        <ele>544.72</ele>
        <time>2022-01-27T15:38:55Z</time>
      </trkpt>
      <trkpt lat="45.41751" lon="4.393">
        <ele>545.2</ele>
        <time>2022-01-27T15:39:08Z</time>
      </trkpt>
      <trkpt lat="45.41741" lon="4.393">
        <ele>545.69</ele>
        <time>2022-01-27T15:39:12Z</time>
      </trkpt>
      <trkpt lat="45.41739" lon="4.393">
        <ele>545.69</ele>
        <time>2022-01-27T15:39:13Z</time>
      </trkpt>
      <trkpt lat="45.41731" lon="4.393">
        <ele>545.69</ele>
        <time>2022-01-27T15:39:17Z</time>
      </trkpt>
      <trkpt lat="45.41728" lon="4.393">
        <ele>545.69</ele>
        <time>2022-01-27T15:39:18Z</time>
      </trkpt>
      <trkpt lat="45.41726" lon="4.39301">
        <ele>546.17</ele>
        <time>2022-01-27T15:39:19Z</time>
      </trkpt>
      <trkpt lat="45.41694" lon="4.39314">
        <ele>546.65</ele>
        <time>2022-01-27T15:39:30Z</time>
      </trkpt>
      <trkpt lat="45.41665" lon="4.39293">
        <ele>547.61</ele>
        <time>2022-01-27T15:39:40Z</time>
      </trkpt>
      <trkpt lat="45.41654" lon="4.39288">
        <ele>547.61</ele>
        <time>2022-01-27T15:39:45Z</time>
      </trkpt>
      <trkpt lat="45.41652" lon="4.39287">
        <ele>548.09</ele>
        <time>2022-01-27T15:39:46Z</time>
      </trkpt>
      <trkpt lat="45.4165" lon="4.39285">
        <ele>548.09</ele>
        <time>2022-01-27T15:39:47Z</time>
      </trkpt>
      <trkpt lat="45.41647" lon="4.39283">
        <ele>548.09</ele>
        <time>2022-01-27T15:39:48Z</time>
      </trkpt>
      <trkpt lat="45.41643" lon="4.39281">
        <ele>548.09</ele>
        <time>2022-01-27T15:39:49Z</time>
      </trkpt>
      <trkpt lat="45.4164" lon="4.39279">
        <ele>548.09</ele>
        <time>2022-01-27T15:39:50Z</time>
      </trkpt>
      <trkpt lat="45.41636" lon="4.39277">
        <ele>548.57</ele>
        <time>2022-01-27T15:39:51Z</time>
      </trkpt>
      <trkpt lat="45.41633" lon="4.39274">
        <ele>548.57</ele>
        <time>2022-01-27T15:39:52Z</time>
      </trkpt>
      <trkpt lat="45.41628" lon="4.39277">
        <ele>548.57</ele>
        <time>2022-01-27T15:39:53Z</time>
      </trkpt>
      <trkpt lat="45.4159" lon="4.39306">
        <ele>551.45</ele>
        <time>2022-01-27T15:40:04Z</time>
      </trkpt>
      <trkpt lat="45.41585" lon="4.393">
        <ele>553.86</ele>
        <time>2022-01-27T15:40:11Z</time>
      </trkpt>
      <trkpt lat="45.41585" lon="4.39296">
        <ele>555.78</ele>
        <time>2022-01-27T15:40:17Z</time>
      </trkpt>
      <trkpt lat="45.4159" lon="4.39281">
        <ele>555.78</ele>
        <time>2022-01-27T15:40:26Z</time>
      </trkpt>
      <trkpt lat="45.41592" lon="4.39275">
        <ele>553.38</ele>
        <time>2022-01-27T15:40:31Z</time>
      </trkpt>
      <trkpt lat="45.41595" lon="4.39266">
        <ele>550.97</ele>
        <time>2022-01-27T15:40:39Z</time>
      </trkpt>
      <trkpt lat="45.41594" lon="4.39242">
        <ele>549.53</ele>
        <time>2022-01-27T15:40:48Z</time>
      </trkpt>
      <trkpt lat="45.41601" lon="4.39187">
        <ele>550.01</ele>
        <time>2022-01-27T15:41:01Z</time>
      </trkpt>
      <trkpt lat="45.4161" lon="4.39151">
        <ele>551.45</ele>
        <time>2022-01-27T15:41:10Z</time>
      </trkpt>
      <trkpt lat="45.4162" lon="4.39102">
        <ele>552.41</ele>
        <time>2022-01-27T15:41:22Z</time>
      </trkpt>
      <trkpt lat="45.4162" lon="4.39094">
        <ele>552.9</ele>
        <time>2022-01-27T15:41:24Z</time>
      </trkpt>
      <trkpt lat="45.4162" lon="4.39091">
        <ele>552.9</ele>
        <time>2022-01-27T15:41:25Z</time>
      </trkpt>
      <trkpt lat="45.41619" lon="4.39087">
        <ele>552.9</ele>
        <time>2022-01-27T15:41:26Z</time>
      </trkpt>
      <trkpt lat="45.41619" lon="4.39085">
        <ele>552.9</ele>
        <time>2022-01-27T15:41:27Z</time>
      </trkpt>
      <trkpt lat="45.41619" lon="4.39083">
        <ele>552.9</ele>
        <time>2022-01-27T15:41:28Z</time>
      </trkpt>
      <trkpt lat="45.4162" lon="4.39081">
        <ele>552.9</ele>
        <time>2022-01-27T15:41:29Z</time>
      </trkpt>
      <trkpt lat="45.41628" lon="4.39041">
        <ele>552.9</ele>
        <time>2022-01-27T15:41:39Z</time>
      </trkpt>
      <trkpt lat="45.41636" lon="4.38982">
        <ele>553.86</ele>
        <time>2022-01-27T15:41:51Z</time>
      </trkpt>
      <trkpt lat="45.41644" lon="4.38937">
        <ele>554.34</ele>
        <time>2022-01-27T15:42:02Z</time>
      </trkpt>
      <trkpt lat="45.41652" lon="4.38892">
        <ele>555.3</ele>
        <time>2022-01-27T15:42:12Z</time>
      </trkpt>
      <trkpt lat="45.41663" lon="4.3883">
        <ele>556.74</ele>
        <time>2022-01-27T15:42:24Z</time>
      </trkpt>
      <trkpt lat="45.41675" lon="4.38764">
        <ele>558.18</ele>
        <time>2022-01-27T15:42:37Z</time>
      </trkpt>
      <trkpt lat="45.41681" lon="4.38732">
        <ele>559.14</ele>
        <time>2022-01-27T15:42:48Z</time>
      </trkpt>
      <trkpt lat="45.41686" lon="4.38695">
        <ele>559.14</ele>
        <time>2022-01-27T15:42:59Z</time>
      </trkpt>
      <trkpt lat="45.41689" lon="4.38675">
        <ele>559.14</ele>
        <time>2022-01-27T15:43:05Z</time>
      </trkpt>
      <trkpt lat="45.41692" lon="4.38658">
        <ele>558.18</ele>
        <time>2022-01-27T15:43:09Z</time>
      </trkpt>
      <trkpt lat="45.41694" lon="4.38654">
        <ele>557.7</ele>
        <time>2022-01-27T15:43:10Z</time>
      </trkpt>
      <trkpt lat="45.41695" lon="4.38649">
        <ele>557.7</ele>
        <time>2022-01-27T15:43:11Z</time>
      </trkpt>
      <trkpt lat="45.41698" lon="4.38606">
        <ele>555.78</ele>
        <time>2022-01-27T15:43:21Z</time>
      </trkpt>
      <trkpt lat="45.41698" lon="4.38603">
        <ele>556.26</ele>
        <time>2022-01-27T15:43:22Z</time>
      </trkpt>
      <trkpt lat="45.41699" lon="4.386">
        <ele>556.26</ele>
        <time>2022-01-27T15:43:23Z</time>
      </trkpt>
      <trkpt lat="45.41699" lon="4.38596">
        <ele>555.3</ele>
        <time>2022-01-27T15:43:24Z</time>
      </trkpt>
      <trkpt lat="45.41699" lon="4.38591">
        <ele>555.3</ele>
        <time>2022-01-27T15:43:25Z</time>
      </trkpt>
      <trkpt lat="45.417" lon="4.38588">
        <ele>555.3</ele>
        <time>2022-01-27T15:43:26Z</time>
      </trkpt>
      <trkpt lat="45.41705" lon="4.38529">
        <ele>553.86</ele>
        <time>2022-01-27T15:43:40Z</time>
      </trkpt>
      <trkpt lat="45.41704" lon="4.38523">
        <ele>553.38</ele>
        <time>2022-01-27T15:43:43Z</time>
      </trkpt>
      <trkpt lat="45.41705" lon="4.38521">
        <ele>553.38</ele>
        <time>2022-01-27T15:43:44Z</time>
      </trkpt>
      <trkpt lat="45.41705" lon="4.38518">
        <ele>553.38</ele>
        <time>2022-01-27T15:43:45Z</time>
      </trkpt>
      <trkpt lat="45.4171" lon="4.38492">
        <ele>553.38</ele>
        <time>2022-01-27T15:43:57Z</time>
      </trkpt>
      <trkpt lat="45.4171" lon="4.3849">
        <ele>553.38</ele>
        <time>2022-01-27T15:43:58Z</time>
      </trkpt>
      <trkpt lat="45.41711" lon="4.38487">
        <ele>553.38</ele>
        <time>2022-01-27T15:43:59Z</time>
      </trkpt>
      <trkpt lat="45.41712" lon="4.38484">
        <ele>553.38</ele>
        <time>2022-01-27T15:44:00Z</time>
      </trkpt>
      <trkpt lat="45.41713" lon="4.3848">
        <ele>554.82</ele>
        <time>2022-01-27T15:44:01Z</time>
      </trkpt>
      <trkpt lat="45.41713" lon="4.38476">
        <ele>554.82</ele>
        <time>2022-01-27T15:44:02Z</time>
      </trkpt>
      <trkpt lat="45.41714" lon="4.38471">
        <ele>555.3</ele>
        <time>2022-01-27T15:44:03Z</time>
      </trkpt>
      <trkpt lat="45.41714" lon="4.38467">
        <ele>555.3</ele>
        <time>2022-01-27T15:44:04Z</time>
      </trkpt>
      <trkpt lat="45.41718" lon="4.38448">
        <ele>556.74</ele>
        <time>2022-01-27T15:44:10Z</time>
      </trkpt>
      <trkpt lat="45.41719" lon="4.38446">
        <ele>557.22</ele>
        <time>2022-01-27T15:44:11Z</time>
      </trkpt>
      <trkpt lat="45.4172" lon="4.38445">
        <ele>557.22</ele>
        <time>2022-01-27T15:44:12Z</time>
      </trkpt>
      <trkpt lat="45.41721" lon="4.38443">
        <ele>557.22</ele>
        <time>2022-01-27T15:44:13Z</time>
      </trkpt>
      <trkpt lat="45.41724" lon="4.38438">
        <ele>557.22</ele>
        <time>2022-01-27T15:44:17Z</time>
      </trkpt>
      <trkpt lat="45.41723" lon="4.38435">
        <ele>557.22</ele>
        <time>2022-01-27T15:44:18Z</time>
      </trkpt>
      <trkpt lat="45.41723" lon="4.38433">
        <ele>557.22</ele>
        <time>2022-01-27T15:44:19Z</time>
      </trkpt>
      <trkpt lat="45.41722" lon="4.3843">
        <ele>557.22</ele>
        <time>2022-01-27T15:44:20Z</time>
      </trkpt>
      <trkpt lat="45.41722" lon="4.38428">
        <ele>557.7</ele>
        <time>2022-01-27T15:44:21Z</time>
      </trkpt>
      <trkpt lat="45.41722" lon="4.38426">
        <ele>557.7</ele>
        <time>2022-01-27T15:44:22Z</time>
      </trkpt>
      <trkpt lat="45.41722" lon="4.38423">
        <ele>557.7</ele>
        <time>2022-01-27T15:44:23Z</time>
      </trkpt>
      <trkpt lat="45.41722" lon="4.38418">
        <ele>557.7</ele>
        <time>2022-01-27T15:44:24Z</time>
      </trkpt>
      <trkpt lat="45.41735" lon="4.38379">
        <ele>558.18</ele>
        <time>2022-01-27T15:44:34Z</time>
      </trkpt>
      <trkpt lat="45.41743" lon="4.38371">
        <ele>558.18</ele>
        <time>2022-01-27T15:44:37Z</time>
      </trkpt>
      <trkpt lat="45.41746" lon="4.38368">
        <ele>558.18</ele>
        <time>2022-01-27T15:44:38Z</time>
      </trkpt>
      <trkpt lat="45.41749" lon="4.38365">
        <ele>558.66</ele>
        <time>2022-01-27T15:44:39Z</time>
      </trkpt>
      <trkpt lat="45.4177" lon="4.38345">
        <ele>559.14</ele>
        <time>2022-01-27T15:44:50Z</time>
      </trkpt>
      <trkpt lat="45.41789" lon="4.38323">
        <ele>559.62</ele>
        <time>2022-01-27T15:45:00Z</time>
      </trkpt>
      <trkpt lat="45.41792" lon="4.38321">
        <ele>561.55</ele>
        <time>2022-01-27T15:45:03Z</time>
      </trkpt>
      <trkpt lat="45.41797" lon="4.38319">
        <ele>563.47</ele>
        <time>2022-01-27T15:45:07Z</time>
      </trkpt>
      <trkpt lat="45.41808" lon="4.38322">
        <ele>565.87</ele>
        <time>2022-01-27T15:45:14Z</time>
      </trkpt>
      <trkpt lat="45.41816" lon="4.38332">
        <ele>565.87</ele>
        <time>2022-01-27T15:45:21Z</time>
      </trkpt>
      <trkpt lat="45.4182" lon="4.38344">
        <ele>564.43</ele>
        <time>2022-01-27T15:45:26Z</time>
      </trkpt>
      <trkpt lat="45.41839" lon="4.38375">
        <ele>562.99</ele>
        <time>2022-01-27T15:45:35Z</time>
      </trkpt>
      <trkpt lat="45.41842" lon="4.38383">
        <ele>562.99</ele>
        <time>2022-01-27T15:45:37Z</time>
      </trkpt>
      <trkpt lat="45.41864" lon="4.38425">
        <ele>562.51</ele>
        <time>2022-01-27T15:45:49Z</time>
      </trkpt>
      <trkpt lat="45.41897" lon="4.38433">
        <ele>563.95</ele>
        <time>2022-01-27T15:45:56Z</time>
      </trkpt>
      <trkpt lat="45.41905" lon="4.38429">
        <ele>564.43</ele>
        <time>2022-01-27T15:46:01Z</time>
      </trkpt>
      <trkpt lat="45.41916" lon="4.38419">
        <ele>566.83</ele>
        <time>2022-01-27T15:46:11Z</time>
      </trkpt>
      <trkpt lat="45.4193" lon="4.38407">
        <ele>570.2</ele>
        <time>2022-01-27T15:46:24Z</time>
      </trkpt>
      <trkpt lat="45.41944" lon="4.38395">
        <ele>572.12</ele>
        <time>2022-01-27T15:46:35Z</time>
      </trkpt>
      <trkpt lat="45.41955" lon="4.38375">
        <ele>573.56</ele>
        <time>2022-01-27T15:46:49Z</time>
      </trkpt>
      <trkpt lat="45.41957" lon="4.38372">
        <ele>574.04</ele>
        <time>2022-01-27T15:46:52Z</time>
      </trkpt>
      <trkpt lat="45.41973" lon="4.38336">
        <ele>574.53</ele>
        <time>2022-01-27T15:47:06Z</time>
      </trkpt>
      <trkpt lat="45.41995" lon="4.38299">
        <ele>574.53</ele>
        <time>2022-01-27T15:47:18Z</time>
      </trkpt>
      <trkpt lat="45.42021" lon="4.3826">
        <ele>576.45</ele>
        <time>2022-01-27T15:47:29Z</time>
      </trkpt>
      <trkpt lat="45.42041" lon="4.38224">
        <ele>575.01</ele>
        <time>2022-01-27T15:47:38Z</time>
      </trkpt>
      <trkpt lat="45.42051" lon="4.38211">
        <ele>574.04</ele>
        <time>2022-01-27T15:47:49Z</time>
      </trkpt>
      <trkpt lat="45.42052" lon="4.3821">
        <ele>574.04</ele>
        <time>2022-01-27T15:47:50Z</time>
      </trkpt>
      <trkpt lat="45.42063" lon="4.38203">
        <ele>574.04</ele>
        <time>2022-01-27T15:47:58Z</time>
      </trkpt>
      <trkpt lat="45.42069" lon="4.38197">
        <ele>575.49</ele>
        <time>2022-01-27T15:48:03Z</time>
      </trkpt>
      <trkpt lat="45.4208" lon="4.38184">
        <ele>578.85</ele>
        <time>2022-01-27T15:48:13Z</time>
      </trkpt>
      <trkpt lat="45.42088" lon="4.38176">
        <ele>581.25</ele>
        <time>2022-01-27T15:48:21Z</time>
      </trkpt>
      <trkpt lat="45.42092" lon="4.38174">
        <ele>582.22</ele>
        <time>2022-01-27T15:48:24Z</time>
      </trkpt>
      <trkpt lat="45.421" lon="4.38163">
        <ele>584.14</ele>
        <time>2022-01-27T15:48:31Z</time>
      </trkpt>
      <trkpt lat="45.42104" lon="4.38158">
        <ele>584.62</ele>
        <time>2022-01-27T15:48:35Z</time>
      </trkpt>
      <trkpt lat="45.42111" lon="4.38146">
        <ele>587.98</ele>
        <time>2022-01-27T15:48:43Z</time>
      </trkpt>
      <trkpt lat="45.42115" lon="4.3814">
        <ele>588.95</ele>
        <time>2022-01-27T15:48:49Z</time>
      </trkpt>
      <trkpt lat="45.42119" lon="4.38151">
        <ele>589.91</ele>
        <time>2022-01-27T15:48:54Z</time>
      </trkpt>
      <trkpt lat="45.42141" lon="4.38182">
        <ele>593.27</ele>
        <time>2022-01-27T15:49:04Z</time>
      </trkpt>
      <trkpt lat="45.42153" lon="4.38193">
        <ele>595.19</ele>
        <time>2022-01-27T15:49:11Z</time>
      </trkpt>
      <trkpt lat="45.42154" lon="4.38192">
        <ele>595.19</ele>
        <time>2022-01-27T15:49:12Z</time>
      </trkpt>
      <trkpt lat="45.42155" lon="4.38192">
        <ele>595.19</ele>
        <time>2022-01-27T15:49:13Z</time>
      </trkpt>
      <trkpt lat="45.42159" lon="4.38189">
        <ele>595.19</ele>
        <time>2022-01-27T15:49:17Z</time>
      </trkpt>
      <trkpt lat="45.42162" lon="4.38187">
        <ele>595.19</ele>
        <time>2022-01-27T15:49:18Z</time>
      </trkpt>
      <trkpt lat="45.42165" lon="4.38187">
        <ele>595.19</ele>
        <time>2022-01-27T15:49:19Z</time>
      </trkpt>
      <trkpt lat="45.42167" lon="4.38189">
        <ele>595.19</ele>
        <time>2022-01-27T15:49:20Z</time>
      </trkpt>
      <trkpt lat="45.42169" lon="4.38192">
        <ele>595.19</ele>
        <time>2022-01-27T15:49:21Z</time>
      </trkpt>
      <trkpt lat="45.42171" lon="4.38195">
        <ele>595.19</ele>
        <time>2022-01-27T15:49:22Z</time>
      </trkpt>
      <trkpt lat="45.42186" lon="4.38216">
        <ele>598.56</ele>
        <time>2022-01-27T15:49:31Z</time>
      </trkpt>
      <trkpt lat="45.42188" lon="4.38217">
        <ele>599.04</ele>
        <time>2022-01-27T15:49:32Z</time>
      </trkpt>
      <trkpt lat="45.42191" lon="4.38217">
        <ele>599.04</ele>
        <time>2022-01-27T15:49:33Z</time>
      </trkpt>
      <trkpt lat="45.42193" lon="4.38217">
        <ele>599.52</ele>
        <time>2022-01-27T15:49:34Z</time>
      </trkpt>
      <trkpt lat="45.42205" lon="4.3822">
        <ele>600.96</ele>
        <time>2022-01-27T15:49:41Z</time>
      </trkpt>
      <trkpt lat="45.42205" lon="4.38223">
        <ele>600.96</ele>
        <time>2022-01-27T15:49:42Z</time>
      </trkpt>
      <trkpt lat="45.42205" lon="4.38225">
        <ele>600.96</ele>
        <time>2022-01-27T15:49:43Z</time>
      </trkpt>
      <trkpt lat="45.42206" lon="4.38227">
        <ele>600.96</ele>
        <time>2022-01-27T15:49:44Z</time>
      </trkpt>
      <trkpt lat="45.42207" lon="4.38228">
        <ele>600.96</ele>
        <time>2022-01-27T15:49:45Z</time>
      </trkpt>
      <trkpt lat="45.42209" lon="4.38229">
        <ele>601.44</ele>
        <time>2022-01-27T15:49:46Z</time>
      </trkpt>
      <trkpt lat="45.4221" lon="4.38229">
        <ele>601.44</ele>
        <time>2022-01-27T15:49:47Z</time>
      </trkpt>
      <trkpt lat="45.42232" lon="4.38232">
        <ele>602.88</ele>
        <time>2022-01-27T15:50:01Z</time>
      </trkpt>
      <trkpt lat="45.42254" lon="4.38233">
        <ele>604.81</ele>
        <time>2022-01-27T15:50:16Z</time>
      </trkpt>
      <trkpt lat="45.42277" lon="4.38232">
        <ele>605.77</ele>
        <time>2022-01-27T15:50:24Z</time>
      </trkpt>
      <trkpt lat="45.42308" lon="4.38229">
        <ele>606.25</ele>
        <time>2022-01-27T15:50:34Z</time>
      </trkpt>
      <trkpt lat="45.42345" lon="4.38221">
        <ele>604.81</ele>
        <time>2022-01-27T15:50:45Z</time>
      </trkpt>
      <trkpt lat="45.42391" lon="4.38209">
        <ele>603.85</ele>
        <time>2022-01-27T15:50:57Z</time>
      </trkpt>
      <trkpt lat="45.42408" lon="4.38197">
        <ele>604.33</ele>
        <time>2022-01-27T15:51:06Z</time>
      </trkpt>
      <trkpt lat="45.42432" lon="4.38177">
        <ele>602.4</ele>
        <time>2022-01-27T15:51:17Z</time>
      </trkpt>
      <trkpt lat="45.4246" lon="4.38152">
        <ele>600.48</ele>
        <time>2022-01-27T15:51:28Z</time>
      </trkpt>
      <trkpt lat="45.42492" lon="4.38118">
        <ele>597.6</ele>
        <time>2022-01-27T15:51:40Z</time>
      </trkpt>
      <trkpt lat="45.42523" lon="4.38073">
        <ele>595.67</ele>
        <time>2022-01-27T15:51:51Z</time>
      </trkpt>
      <trkpt lat="45.42554" lon="4.38043">
        <ele>592.31</ele>
        <time>2022-01-27T15:52:02Z</time>
      </trkpt>
      <trkpt lat="45.4257" lon="4.38028">
        <ele>589.43</ele>
        <time>2022-01-27T15:52:09Z</time>
      </trkpt>
      <trkpt lat="45.4258" lon="4.38023">
        <ele>587.5</ele>
        <time>2022-01-27T15:52:15Z</time>
      </trkpt>
      <trkpt lat="45.42601" lon="4.38016">
        <ele>586.06</ele>
        <time>2022-01-27T15:52:24Z</time>
      </trkpt>
      <trkpt lat="45.4261" lon="4.38008">
        <ele>584.14</ele>
        <time>2022-01-27T15:52:30Z</time>
      </trkpt>
      <trkpt lat="45.42645" lon="4.38003">
        <ele>582.7</ele>
        <time>2022-01-27T15:52:43Z</time>
      </trkpt>
      <trkpt lat="45.42671" lon="4.37998">
        <ele>582.22</ele>
        <time>2022-01-27T15:52:53Z</time>
      </trkpt>
      <trkpt lat="45.42722" lon="4.37985">
        <ele>580.77</ele>
        <time>2022-01-27T15:53:06Z</time>
      </trkpt>
      <trkpt lat="45.42767" lon="4.37965">
        <ele>579.81</ele>
        <time>2022-01-27T15:53:19Z</time>
      </trkpt>
      <trkpt lat="45.42772" lon="4.37962">
        <ele>579.81</ele>
        <time>2022-01-27T15:53:22Z</time>
      </trkpt>
      <trkpt lat="45.4277" lon="4.37922">
        <ele>579.81</ele>
        <time>2022-01-27T15:53:33Z</time>
      </trkpt>
      <trkpt lat="45.42781" lon="4.37899">
        <ele>579.81</ele>
        <time>2022-01-27T15:53:39Z</time>
      </trkpt>
      <trkpt lat="45.42786" lon="4.37895">
        <ele>579.81</ele>
        <time>2022-01-27T15:53:41Z</time>
      </trkpt>
      <trkpt lat="45.42789" lon="4.37894">
        <ele>579.81</ele>
        <time>2022-01-27T15:53:42Z</time>
      </trkpt>
      <trkpt lat="45.42791" lon="4.37892">
        <ele>579.81</ele>
        <time>2022-01-27T15:53:43Z</time>
      </trkpt>
      <trkpt lat="45.42793" lon="4.37891">
        <ele>579.81</ele>
        <time>2022-01-27T15:53:44Z</time>
      </trkpt>
      <trkpt lat="45.42794" lon="4.37888">
        <ele>579.81</ele>
        <time>2022-01-27T15:53:45Z</time>
      </trkpt>
      <trkpt lat="45.42796" lon="4.37885">
        <ele>579.81</ele>
        <time>2022-01-27T15:53:46Z</time>
      </trkpt>
      <trkpt lat="45.42797" lon="4.37882">
        <ele>579.81</ele>
        <time>2022-01-27T15:53:47Z</time>
      </trkpt>
      <trkpt lat="45.42797" lon="4.37881">
        <ele>579.33</ele>
        <time>2022-01-27T15:53:48Z</time>
      </trkpt>
      <trkpt lat="45.42805" lon="4.37864">
        <ele>580.29</ele>
        <time>2022-01-27T15:53:58Z</time>
      </trkpt>
      <trkpt lat="45.4283" lon="4.37853">
        <ele>580.29</ele>
        <time>2022-01-27T15:54:16Z</time>
      </trkpt>
      <trkpt lat="45.42852" lon="4.37838">
        <ele>577.89</ele>
        <time>2022-01-27T15:54:28Z</time>
      </trkpt>
      <trkpt lat="45.42865" lon="4.37781">
        <ele>576.93</ele>
        <time>2022-01-27T15:54:40Z</time>
      </trkpt>
      <trkpt lat="45.42867" lon="4.37727">
        <ele>578.37</ele>
        <time>2022-01-27T15:54:52Z</time>
      </trkpt>
      <trkpt lat="45.42866" lon="4.37661">
        <ele>575.97</ele>
        <time>2022-01-27T15:55:07Z</time>
      </trkpt>
      <trkpt lat="45.42878" lon="4.37621">
        <ele>575.97</ele>
        <time>2022-01-27T15:55:17Z</time>
      </trkpt>
      <trkpt lat="45.4288" lon="4.3762">
        <ele>575.97</ele>
        <time>2022-01-27T15:55:19Z</time>
      </trkpt>
      <trkpt lat="45.42883" lon="4.37618">
        <ele>575.97</ele>
        <time>2022-01-27T15:55:20Z</time>
      </trkpt>
      <trkpt lat="45.42894" lon="4.37616">
        <ele>574.53</ele>
        <time>2022-01-27T15:55:24Z</time>
      </trkpt>
      <trkpt lat="45.42897" lon="4.37616">
        <ele>574.04</ele>
        <time>2022-01-27T15:55:31Z</time>
      </trkpt>
      <trkpt lat="45.42898" lon="4.37613">
        <ele>573.56</ele>
        <time>2022-01-27T15:55:32Z</time>
      </trkpt>
      <trkpt lat="45.42898" lon="4.3761">
        <ele>573.56</ele>
        <time>2022-01-27T15:55:33Z</time>
      </trkpt>
      <trkpt lat="45.42898" lon="4.37608">
        <ele>573.56</ele>
        <time>2022-01-27T15:55:34Z</time>
      </trkpt>
      <trkpt lat="45.42897" lon="4.37605">
        <ele>573.56</ele>
        <time>2022-01-27T15:55:35Z</time>
      </trkpt>
      <trkpt lat="45.42892" lon="4.37592">
        <ele>575.49</ele>
        <time>2022-01-27T15:55:39Z</time>
      </trkpt>
      <trkpt lat="45.42857" lon="4.3756">
        <ele>575.49</ele>
        <time>2022-01-27T15:55:51Z</time>
      </trkpt>
      <trkpt lat="45.4284" lon="4.37518">
        <ele>574.53</ele>
        <time>2022-01-27T15:56:02Z</time>
      </trkpt>
      <trkpt lat="45.4284" lon="4.37461">
        <ele>574.53</ele>
        <time>2022-01-27T15:56:13Z</time>
      </trkpt>
      <trkpt lat="45.42823" lon="4.37428">
        <ele>574.53</ele>
        <time>2022-01-27T15:56:23Z</time>
      </trkpt>
      <trkpt lat="45.42799" lon="4.37395">
        <ele>576.45</ele>
        <time>2022-01-27T15:56:34Z</time>
      </trkpt>
      <trkpt lat="45.42769" lon="4.37366">
        <ele>576.93</ele>
        <time>2022-01-27T15:56:45Z</time>
      </trkpt>
      <trkpt lat="45.4274" lon="4.37336">
        <ele>577.89</ele>
        <time>2022-01-27T15:56:55Z</time>
      </trkpt>
      <trkpt lat="45.42731" lon="4.37296">
        <ele>578.37</ele>
        <time>2022-01-27T15:57:05Z</time>
      </trkpt>
      <trkpt lat="45.42726" lon="4.37251">
        <ele>578.37</ele>
        <time>2022-01-27T15:57:15Z</time>
      </trkpt>
      <trkpt lat="45.42726" lon="4.37219">
        <ele>579.33</ele>
        <time>2022-01-27T15:57:22Z</time>
      </trkpt>
      <trkpt lat="45.42725" lon="4.37215">
        <ele>579.33</ele>
        <time>2022-01-27T15:57:23Z</time>
      </trkpt>
      <trkpt lat="45.42732" lon="4.37159">
        <ele>579.81</ele>
        <time>2022-01-27T15:57:34Z</time>
      </trkpt>
      <trkpt lat="45.42755" lon="4.3711">
        <ele>580.77</ele>
        <time>2022-01-27T15:57:46Z</time>
      </trkpt>
      <trkpt lat="45.42755" lon="4.37109">
        <ele>580.77</ele>
        <time>2022-01-27T15:57:47Z</time>
      </trkpt>
      <trkpt lat="45.42756" lon="4.3711">
        <ele>580.77</ele>
        <time>2022-01-27T15:57:48Z</time>
      </trkpt>
      <trkpt lat="45.42758" lon="4.37111">
        <ele>580.77</ele>
        <time>2022-01-27T15:57:50Z</time>
      </trkpt>
      <trkpt lat="45.42768" lon="4.3712">
        <ele>579.81</ele>
        <time>2022-01-27T15:57:58Z</time>
      </trkpt>
      <trkpt lat="45.4277" lon="4.3712">
        <ele>579.81</ele>
        <time>2022-01-27T15:58:00Z</time>
      </trkpt>
      <trkpt lat="45.42794" lon="4.37142">
        <ele>577.89</ele>
        <time>2022-01-27T15:58:13Z</time>
      </trkpt>
      <trkpt lat="45.42803" lon="4.37142">
        <ele>577.41</ele>
        <time>2022-01-27T15:58:26Z</time>
      </trkpt>
      <trkpt lat="45.42805" lon="4.37139">
        <ele>577.41</ele>
        <time>2022-01-27T15:58:30Z</time>
      </trkpt>
      <trkpt lat="45.4281" lon="4.3713">
        <ele>577.41</ele>
        <time>2022-01-27T15:58:33Z</time>
      </trkpt>
      <trkpt lat="45.42813" lon="4.3713">
        <ele>577.41</ele>
        <time>2022-01-27T15:58:34Z</time>
      </trkpt>
      <trkpt lat="45.42814" lon="4.37131">
        <ele>578.85</ele>
        <time>2022-01-27T15:58:35Z</time>
      </trkpt>
      <trkpt lat="45.42817" lon="4.37133">
        <ele>579.33</ele>
        <time>2022-01-27T15:58:36Z</time>
      </trkpt>
      <trkpt lat="45.42819" lon="4.37134">
        <ele>579.81</ele>
        <time>2022-01-27T15:58:37Z</time>
      </trkpt>
      <trkpt lat="45.42821" lon="4.37135">
        <ele>580.77</ele>
        <time>2022-01-27T15:58:38Z</time>
      </trkpt>
      <trkpt lat="45.42823" lon="4.37137">
        <ele>581.25</ele>
        <time>2022-01-27T15:58:39Z</time>
      </trkpt>
      <trkpt lat="45.42826" lon="4.37139">
        <ele>581.25</ele>
        <time>2022-01-27T15:58:40Z</time>
      </trkpt>
      <trkpt lat="45.42828" lon="4.37141">
        <ele>581.73</ele>
        <time>2022-01-27T15:58:41Z</time>
      </trkpt>
      <trkpt lat="45.42831" lon="4.37143">
        <ele>581.73</ele>
        <time>2022-01-27T15:58:42Z</time>
      </trkpt>
      <trkpt lat="45.42833" lon="4.37146">
        <ele>582.22</ele>
        <time>2022-01-27T15:58:43Z</time>
      </trkpt>
      <trkpt lat="45.42836" lon="4.3715">
        <ele>582.22</ele>
        <time>2022-01-27T15:58:44Z</time>
      </trkpt>
      <trkpt lat="45.42856" lon="4.37177">
        <ele>580.77</ele>
        <time>2022-01-27T15:58:52Z</time>
      </trkpt>
      <trkpt lat="45.42886" lon="4.37185">
        <ele>580.29</ele>
        <time>2022-01-27T15:59:03Z</time>
      </trkpt>
      <trkpt lat="45.42912" lon="4.37185">
        <ele>580.29</ele>
        <time>2022-01-27T15:59:17Z</time>
      </trkpt>
      <trkpt lat="45.42935" lon="4.37178">
        <ele>580.29</ele>
        <time>2022-01-27T15:59:31Z</time>
      </trkpt>
      <trkpt lat="45.42939" lon="4.37176">
        <ele>580.29</ele>
        <time>2022-01-27T15:59:35Z</time>
      </trkpt>
      <trkpt lat="45.42957" lon="4.37165">
        <ele>579.81</ele>
        <time>2022-01-27T15:59:46Z</time>
      </trkpt>
      <trkpt lat="45.4298" lon="4.37162">
        <ele>579.81</ele>
        <time>2022-01-27T15:59:56Z</time>
      </trkpt>
      <trkpt lat="45.43006" lon="4.37165">
        <ele>579.81</ele>
        <time>2022-01-27T16:00:06Z</time>
      </trkpt>
      <trkpt lat="45.43042" lon="4.37165">
        <ele>578.85</ele>
        <time>2022-01-27T16:00:21Z</time>
      </trkpt>
      <trkpt lat="45.43045" lon="4.37166">
        <ele>578.85</ele>
        <time>2022-01-27T16:00:24Z</time>
      </trkpt>
      <trkpt lat="45.4307" lon="4.37182">
        <ele>578.85</ele>
        <time>2022-01-27T16:00:38Z</time>
      </trkpt>
      <trkpt lat="45.43089" lon="4.37192">
        <ele>577.41</ele>
        <time>2022-01-27T16:05:38Z</time>
      </trkpt>
      <trkpt lat="45.43084" lon="4.37182">
        <ele>577.41</ele>
        <time>2022-01-27T16:05:45Z</time>
      </trkpt>
      <trkpt lat="45.43081" lon="4.37177">
        <ele>579.33</ele>
        <time>2022-01-27T16:05:48Z</time>
      </trkpt>
      <trkpt lat="45.43075" lon="4.37171">
        <ele>579.33</ele>
        <time>2022-01-27T16:05:52Z</time>
      </trkpt>
      <trkpt lat="45.43063" lon="4.37153">
        <ele>582.7</ele>
        <time>2022-01-27T16:06:05Z</time>
      </trkpt>
      <trkpt lat="45.43054" lon="4.37142">
        <ele>584.62</ele>
        <time>2022-01-27T16:06:14Z</time>
      </trkpt>
      <trkpt lat="45.43037" lon="4.37129">
        <ele>587.98</ele>
        <time>2022-01-27T16:06:29Z</time>
      </trkpt>
      <trkpt lat="45.43015" lon="4.37112">
        <ele>589.43</ele>
        <time>2022-01-27T16:06:45Z</time>
      </trkpt>
      <trkpt lat="45.42995" lon="4.37105">
        <ele>591.83</ele>
        <time>2022-01-27T16:07:00Z</time>
      </trkpt>
      <trkpt lat="45.42989" lon="4.37102">
        <ele>592.79</ele>
        <time>2022-01-27T16:07:05Z</time>
      </trkpt>
      <trkpt lat="45.42983" lon="4.37098">
        <ele>593.75</ele>
        <time>2022-01-27T16:07:10Z</time>
      </trkpt>
      <trkpt lat="45.42974" lon="4.37094">
        <ele>595.67</ele>
        <time>2022-01-27T16:07:19Z</time>
      </trkpt>
      <trkpt lat="45.4296" lon="4.37086">
        <ele>598.56</ele>
        <time>2022-01-27T16:07:29Z</time>
      </trkpt>
      <trkpt lat="45.42953" lon="4.37081">
        <ele>599.04</ele>
        <time>2022-01-27T16:07:34Z</time>
      </trkpt>
      <trkpt lat="45.42948" lon="4.37077">
        <ele>600</ele>
        <time>2022-01-27T16:07:38Z</time>
      </trkpt>
      <trkpt lat="45.42938" lon="4.37074">
        <ele>601.44</ele>
        <time>2022-01-27T16:07:50Z</time>
      </trkpt>
      <trkpt lat="45.4294" lon="4.37071">
        <ele>602.4</ele>
        <time>2022-01-27T16:08:04Z</time>
      </trkpt>
      <trkpt lat="45.42933" lon="4.3707">
        <ele>602.4</ele>
        <time>2022-01-27T16:08:20Z</time>
      </trkpt>
      <trkpt lat="45.42925" lon="4.37073">
        <ele>602.4</ele>
        <time>2022-01-27T16:08:27Z</time>
      </trkpt>
      <trkpt lat="45.42915" lon="4.37077">
        <ele>600.48</ele>
        <time>2022-01-27T16:08:32Z</time>
      </trkpt>
      <trkpt lat="45.42904" lon="4.37075">
        <ele>600</ele>
        <time>2022-01-27T16:08:36Z</time>
      </trkpt>
      <trkpt lat="45.4289" lon="4.3707">
        <ele>601.44</ele>
        <time>2022-01-27T16:08:42Z</time>
      </trkpt>
      <trkpt lat="45.42861" lon="4.37057">
        <ele>602.4</ele>
        <time>2022-01-27T16:08:53Z</time>
      </trkpt>
      <trkpt lat="45.42843" lon="4.3705">
        <ele>600.96</ele>
        <time>2022-01-27T16:08:59Z</time>
      </trkpt>
      <trkpt lat="45.42811" lon="4.37034">
        <ele>598.08</ele>
        <time>2022-01-27T16:09:11Z</time>
      </trkpt>
      <trkpt lat="45.42775" lon="4.37018">
        <ele>594.71</ele>
        <time>2022-01-27T16:09:22Z</time>
      </trkpt>
      <trkpt lat="45.42757" lon="4.37009">
        <ele>593.27</ele>
        <time>2022-01-27T16:09:28Z</time>
      </trkpt>
      <trkpt lat="45.42728" lon="4.3698">
        <ele>591.35</ele>
        <time>2022-01-27T16:09:39Z</time>
      </trkpt>
      <trkpt lat="45.4271" lon="4.36961">
        <ele>590.87</ele>
        <time>2022-01-27T16:09:48Z</time>
      </trkpt>
      <trkpt lat="45.42699" lon="4.36972">
        <ele>590.87</ele>
        <time>2022-01-27T16:09:54Z</time>
      </trkpt>
      <trkpt lat="45.42704" lon="4.3697">
        <ele>590.39</ele>
        <time>2022-01-27T16:09:58Z</time>
      </trkpt>
      <trkpt lat="45.42732" lon="4.36986">
        <ele>591.83</ele>
        <time>2022-01-27T16:10:09Z</time>
      </trkpt>
      <trkpt lat="45.42747" lon="4.36996">
        <ele>593.75</ele>
        <time>2022-01-27T16:10:17Z</time>
      </trkpt>
      <trkpt lat="45.4275" lon="4.36998">
        <ele>594.71</ele>
        <time>2022-01-27T16:10:19Z</time>
      </trkpt>
      <trkpt lat="45.42754" lon="4.37001">
        <ele>595.67</ele>
        <time>2022-01-27T16:10:22Z</time>
      </trkpt>
      <trkpt lat="45.42768" lon="4.37006">
        <ele>597.12</ele>
        <time>2022-01-27T16:10:27Z</time>
      </trkpt>
      <trkpt lat="45.42781" lon="4.3701">
        <ele>597.6</ele>
        <time>2022-01-27T16:10:31Z</time>
      </trkpt>
      <trkpt lat="45.42788" lon="4.37014">
        <ele>598.08</ele>
        <time>2022-01-27T16:10:35Z</time>
      </trkpt>
      <trkpt lat="45.42805" lon="4.37024">
        <ele>600</ele>
        <time>2022-01-27T16:10:45Z</time>
      </trkpt>
      <trkpt lat="45.42826" lon="4.37034">
        <ele>600.48</ele>
        <time>2022-01-27T16:10:57Z</time>
      </trkpt>
      <trkpt lat="45.42843" lon="4.37039">
        <ele>600.48</ele>
        <time>2022-01-27T16:11:03Z</time>
      </trkpt>
      <trkpt lat="45.42851" lon="4.37044">
        <ele>600.48</ele>
        <time>2022-01-27T16:11:07Z</time>
      </trkpt>
      <trkpt lat="45.42884" lon="4.37062">
        <ele>599.04</ele>
        <time>2022-01-27T16:11:19Z</time>
      </trkpt>
      <trkpt lat="45.42895" lon="4.37064">
        <ele>598.56</ele>
        <time>2022-01-27T16:11:25Z</time>
      </trkpt>
      <trkpt lat="45.42901" lon="4.37063">
        <ele>599.52</ele>
        <time>2022-01-27T16:11:28Z</time>
      </trkpt>
      <trkpt lat="45.42914" lon="4.37061">
        <ele>600</ele>
        <time>2022-01-27T16:11:33Z</time>
      </trkpt>
      <trkpt lat="45.42928" lon="4.37065">
        <ele>598.56</ele>
        <time>2022-01-27T16:11:41Z</time>
      </trkpt>
      <trkpt lat="45.42929" lon="4.37066">
        <ele>597.6</ele>
        <time>2022-01-27T16:11:42Z</time>
      </trkpt>
      <trkpt lat="45.42942" lon="4.37074">
        <ele>595.67</ele>
        <time>2022-01-27T16:11:48Z</time>
      </trkpt>
      <trkpt lat="45.42955" lon="4.37082">
        <ele>593.27</ele>
        <time>2022-01-27T16:11:53Z</time>
      </trkpt>
      <trkpt lat="45.42959" lon="4.37084">
        <ele>592.31</ele>
        <time>2022-01-27T16:11:55Z</time>
      </trkpt>
      <trkpt lat="45.42982" lon="4.37095">
        <ele>588.95</ele>
        <time>2022-01-27T16:12:04Z</time>
      </trkpt>
      <trkpt lat="45.42995" lon="4.37099">
        <ele>587.5</ele>
        <time>2022-01-27T16:12:13Z</time>
      </trkpt>
      <trkpt lat="45.43022" lon="4.37112">
        <ele>585.1</ele>
        <time>2022-01-27T16:12:23Z</time>
      </trkpt>
      <trkpt lat="45.4304" lon="4.37124">
        <ele>581.73</ele>
        <time>2022-01-27T16:12:30Z</time>
      </trkpt>
      <trkpt lat="45.43044" lon="4.37126">
        <ele>581.73</ele>
        <time>2022-01-27T16:12:31Z</time>
      </trkpt>
      <trkpt lat="45.43058" lon="4.37141">
        <ele>578.37</ele>
        <time>2022-01-27T16:12:42Z</time>
      </trkpt>
      <trkpt lat="45.4307" lon="4.37159">
        <ele>575.01</ele>
        <time>2022-01-27T16:12:54Z</time>
      </trkpt>
      <trkpt lat="45.43072" lon="4.37161">
        <ele>574.53</ele>
        <time>2022-01-27T16:12:56Z</time>
      </trkpt>
      <trkpt lat="45.43078" lon="4.37173">
        <ele>574.04</ele>
        <time>2022-01-27T16:13:02Z</time>
      </trkpt>
      <trkpt lat="45.43089" lon="4.37188">
        <ele>572.6</ele>
        <time>2022-01-27T16:13:07Z</time>
      </trkpt>
      <trkpt lat="45.43118" lon="4.37234">
        <ele>570.2</ele>
        <time>2022-01-27T16:13:19Z</time>
      </trkpt>
      <trkpt lat="45.43143" lon="4.37268">
        <ele>567.32</ele>
        <time>2022-01-27T16:13:29Z</time>
      </trkpt>
      <trkpt lat="45.43169" lon="4.37299">
        <ele>564.43</ele>
        <time>2022-01-27T16:13:38Z</time>
      </trkpt>
      <trkpt lat="45.43176" lon="4.37306">
        <ele>563.47</ele>
        <time>2022-01-27T16:13:40Z</time>
      </trkpt>
      <trkpt lat="45.4318" lon="4.37309">
        <ele>562.99</ele>
        <time>2022-01-27T16:13:41Z</time>
      </trkpt>
      <trkpt lat="45.43188" lon="4.37317">
        <ele>561.55</ele>
        <time>2022-01-27T16:13:44Z</time>
      </trkpt>
      <trkpt lat="45.43206" lon="4.37322">
        <ele>563.47</ele>
        <time>2022-01-27T16:13:53Z</time>
      </trkpt>
      <trkpt lat="45.43239" lon="4.3732">
        <ele>562.51</ele>
        <time>2022-01-27T16:14:04Z</time>
      </trkpt>
      <trkpt lat="45.43281" lon="4.37312">
        <ele>560.11</ele>
        <time>2022-01-27T16:14:16Z</time>
      </trkpt>
      <trkpt lat="45.43291" lon="4.37304">
        <ele>560.11</ele>
        <time>2022-01-27T16:14:24Z</time>
      </trkpt>
      <trkpt lat="45.43297" lon="4.37304">
        <ele>559.62</ele>
        <time>2022-01-27T16:14:28Z</time>
      </trkpt>
      <trkpt lat="45.43333" lon="4.37277">
        <ele>557.7</ele>
        <time>2022-01-27T16:14:40Z</time>
      </trkpt>
      <trkpt lat="45.43358" lon="4.3722">
        <ele>555.78</ele>
        <time>2022-01-27T16:14:53Z</time>
      </trkpt>
      <trkpt lat="45.43372" lon="4.37159">
        <ele>553.86</ele>
        <time>2022-01-27T16:15:07Z</time>
      </trkpt>
      <trkpt lat="45.43391" lon="4.37115">
        <ele>552.41</ele>
        <time>2022-01-27T16:15:17Z</time>
      </trkpt>
      <trkpt lat="45.43401" lon="4.37099">
        <ele>552.9</ele>
        <time>2022-01-27T16:15:21Z</time>
      </trkpt>
      <trkpt lat="45.43404" lon="4.37095">
        <ele>552.41</ele>
        <time>2022-01-27T16:15:22Z</time>
      </trkpt>
      <trkpt lat="45.43406" lon="4.37092">
        <ele>552.41</ele>
        <time>2022-01-27T16:15:23Z</time>
      </trkpt>
      <trkpt lat="45.43418" lon="4.37072">
        <ele>553.86</ele>
        <time>2022-01-27T16:15:29Z</time>
      </trkpt>
      <trkpt lat="45.43446" lon="4.37046">
        <ele>555.78</ele>
        <time>2022-01-27T16:15:41Z</time>
      </trkpt>
      <trkpt lat="45.43471" lon="4.3704">
        <ele>557.22</ele>
        <time>2022-01-27T16:15:51Z</time>
      </trkpt>
      <trkpt lat="45.43479" lon="4.37039">
        <ele>558.18</ele>
        <time>2022-01-27T16:15:56Z</time>
      </trkpt>
      <trkpt lat="45.43498" lon="4.37047">
        <ele>558.66</ele>
        <time>2022-01-27T16:16:01Z</time>
      </trkpt>
      <trkpt lat="45.43507" lon="4.37051">
        <ele>558.18</ele>
        <time>2022-01-27T16:16:05Z</time>
      </trkpt>
      <trkpt lat="45.43523" lon="4.37071">
        <ele>558.18</ele>
        <time>2022-01-27T16:16:12Z</time>
      </trkpt>
      <trkpt lat="45.43548" lon="4.37114">
        <ele>558.18</ele>
        <time>2022-01-27T16:16:23Z</time>
      </trkpt>
      <trkpt lat="45.43579" lon="4.37156">
        <ele>558.18</ele>
        <time>2022-01-27T16:16:35Z</time>
      </trkpt>
      <trkpt lat="45.43608" lon="4.37202">
        <ele>558.66</ele>
        <time>2022-01-27T16:16:46Z</time>
      </trkpt>
      <trkpt lat="45.43639" lon="4.3724">
        <ele>559.14</ele>
        <time>2022-01-27T16:16:57Z</time>
      </trkpt>
      <trkpt lat="45.43675" lon="4.37269">
        <ele>559.62</ele>
        <time>2022-01-27T16:17:08Z</time>
      </trkpt>
      <trkpt lat="45.43678" lon="4.37277">
        <ele>558.18</ele>
        <time>2022-01-27T16:17:10Z</time>
      </trkpt>
      <trkpt lat="45.43685" lon="4.37292">
        <ele>556.74</ele>
        <time>2022-01-27T16:17:13Z</time>
      </trkpt>
      <trkpt lat="45.43687" lon="4.37297">
        <ele>556.26</ele>
        <time>2022-01-27T16:17:14Z</time>
      </trkpt>
      <trkpt lat="45.43688" lon="4.37302">
        <ele>555.78</ele>
        <time>2022-01-27T16:17:15Z</time>
      </trkpt>
      <trkpt lat="45.43701" lon="4.3733">
        <ele>553.86</ele>
        <time>2022-01-27T16:17:22Z</time>
      </trkpt>
      <trkpt lat="45.43707" lon="4.37331">
        <ele>555.3</ele>
        <time>2022-01-27T16:17:26Z</time>
      </trkpt>
      <trkpt lat="45.43708" lon="4.37328">
        <ele>556.74</ele>
        <time>2022-01-27T16:17:27Z</time>
      </trkpt>
      <trkpt lat="45.43709" lon="4.37325">
        <ele>556.74</ele>
        <time>2022-01-27T16:17:28Z</time>
      </trkpt>
      <trkpt lat="45.4371" lon="4.3731">
        <ele>559.62</ele>
        <time>2022-01-27T16:17:33Z</time>
      </trkpt>
      <trkpt lat="45.43711" lon="4.37299">
        <ele>562.51</ele>
        <time>2022-01-27T16:17:38Z</time>
      </trkpt>
      <trkpt lat="45.43711" lon="4.37286">
        <ele>565.87</ele>
        <time>2022-01-27T16:17:43Z</time>
      </trkpt>
      <trkpt lat="45.4371" lon="4.37272">
        <ele>569.24</ele>
        <time>2022-01-27T16:17:50Z</time>
      </trkpt>
      <trkpt lat="45.43705" lon="4.37253">
        <ele>572.6</ele>
        <time>2022-01-27T16:17:56Z</time>
      </trkpt>
      <trkpt lat="45.43693" lon="4.37221">
        <ele>575.49</ele>
        <time>2022-01-27T16:18:06Z</time>
      </trkpt>
      <trkpt lat="45.43692" lon="4.37219">
        <ele>575.01</ele>
        <time>2022-01-27T16:18:08Z</time>
      </trkpt>
      <trkpt lat="45.4369" lon="4.37218">
        <ele>575.49</ele>
        <time>2022-01-27T16:18:09Z</time>
      </trkpt>
      <trkpt lat="45.43689" lon="4.37216">
        <ele>575.49</ele>
        <time>2022-01-27T16:18:10Z</time>
      </trkpt>
      <trkpt lat="45.43687" lon="4.37184">
        <ele>578.37</ele>
        <time>2022-01-27T16:18:21Z</time>
      </trkpt>
      <trkpt lat="45.43685" lon="4.3716">
        <ele>582.22</ele>
        <time>2022-01-27T16:18:28Z</time>
      </trkpt>
      <trkpt lat="45.43685" lon="4.37148">
        <ele>584.62</ele>
        <time>2022-01-27T16:18:32Z</time>
      </trkpt>
      <trkpt lat="45.43685" lon="4.37126">
        <ele>587.5</ele>
        <time>2022-01-27T16:18:43Z</time>
      </trkpt>
      <trkpt lat="45.43684" lon="4.37102">
        <ele>591.35</ele>
        <time>2022-01-27T16:18:56Z</time>
      </trkpt>
      <trkpt lat="45.43684" lon="4.37096">
        <ele>592.31</ele>
        <time>2022-01-27T16:18:59Z</time>
      </trkpt>
      <trkpt lat="45.43684" lon="4.37094">
        <ele>592.31</ele>
        <time>2022-01-27T16:19:00Z</time>
      </trkpt>
      <trkpt lat="45.43683" lon="4.37064">
        <ele>595.19</ele>
        <time>2022-01-27T16:19:15Z</time>
      </trkpt>
      <trkpt lat="45.43681" lon="4.37059">
        <ele>595.67</ele>
        <time>2022-01-27T16:19:17Z</time>
      </trkpt>
      <trkpt lat="45.4368" lon="4.37055">
        <ele>595.67</ele>
        <time>2022-01-27T16:19:18Z</time>
      </trkpt>
      <trkpt lat="45.43676" lon="4.37044">
        <ele>595.67</ele>
        <time>2022-01-27T16:19:19Z</time>
      </trkpt>
      <trkpt lat="45.43674" lon="4.37039">
        <ele>595.67</ele>
        <time>2022-01-27T16:19:20Z</time>
      </trkpt>
      <trkpt lat="45.43672" lon="4.37038">
        <ele>595.67</ele>
        <time>2022-01-27T16:19:21Z</time>
      </trkpt>
      <trkpt lat="45.4367" lon="4.37036">
        <ele>596.15</ele>
        <time>2022-01-27T16:19:22Z</time>
      </trkpt>
      <trkpt lat="45.43663" lon="4.37033">
        <ele>596.64</ele>
        <time>2022-01-27T16:19:25Z</time>
      </trkpt>
      <trkpt lat="45.43633" lon="4.37002">
        <ele>598.56</ele>
        <time>2022-01-27T16:19:37Z</time>
      </trkpt>
      <trkpt lat="45.43619" lon="4.36987">
        <ele>600</ele>
        <time>2022-01-27T16:19:47Z</time>
      </trkpt>
      <trkpt lat="45.43614" lon="4.36983">
        <ele>600</ele>
        <time>2022-01-27T16:19:50Z</time>
      </trkpt>
      <trkpt lat="45.43613" lon="4.36982">
        <ele>600</ele>
        <time>2022-01-27T16:19:51Z</time>
      </trkpt>
      <trkpt lat="45.43612" lon="4.36981">
        <ele>600</ele>
        <time>2022-01-27T16:19:52Z</time>
      </trkpt>
      <trkpt lat="45.43582" lon="4.36962">
        <ele>600.48</ele>
        <time>2022-01-27T16:20:04Z</time>
      </trkpt>
      <trkpt lat="45.43549" lon="4.36932">
        <ele>600.96</ele>
        <time>2022-01-27T16:20:15Z</time>
      </trkpt>
      <trkpt lat="45.43514" lon="4.36902">
        <ele>602.88</ele>
        <time>2022-01-27T16:20:28Z</time>
      </trkpt>
      <trkpt lat="45.43472" lon="4.36904">
        <ele>604.81</ele>
        <time>2022-01-27T16:20:40Z</time>
      </trkpt>
      <trkpt lat="45.4343" lon="4.36907">
        <ele>606.73</ele>
        <time>2022-01-27T16:20:53Z</time>
      </trkpt>
      <trkpt lat="45.43395" lon="4.36896">
        <ele>610.09</ele>
        <time>2022-01-27T16:21:04Z</time>
      </trkpt>
      <trkpt lat="45.43365" lon="4.3688">
        <ele>612.98</ele>
        <time>2022-01-27T16:21:14Z</time>
      </trkpt>
      <trkpt lat="45.43332" lon="4.36855">
        <ele>616.34</ele>
        <time>2022-01-27T16:21:25Z</time>
      </trkpt>
      <trkpt lat="45.43285" lon="4.36841">
        <ele>619.23</ele>
        <time>2022-01-27T16:21:39Z</time>
      </trkpt>
      <trkpt lat="45.43235" lon="4.3683">
        <ele>619.71</ele>
        <time>2022-01-27T16:21:54Z</time>
      </trkpt>
      <trkpt lat="45.43181" lon="4.36839">
        <ele>621.63</ele>
        <time>2022-01-27T16:22:09Z</time>
      </trkpt>
      <trkpt lat="45.43131" lon="4.36861">
        <ele>624.51</ele>
        <time>2022-01-27T16:22:24Z</time>
      </trkpt>
      <trkpt lat="45.43093" lon="4.3688">
        <ele>627.88</ele>
        <time>2022-01-27T16:22:36Z</time>
      </trkpt>
      <trkpt lat="45.43047" lon="4.36904">
        <ele>629.8</ele>
        <time>2022-01-27T16:22:50Z</time>
      </trkpt>
      <trkpt lat="45.43001" lon="4.36919">
        <ele>631.72</ele>
        <time>2022-01-27T16:23:04Z</time>
      </trkpt>
      <trkpt lat="45.42956" lon="4.3692">
        <ele>634.13</ele>
        <time>2022-01-27T16:23:17Z</time>
      </trkpt>
      <trkpt lat="45.42912" lon="4.36909">
        <ele>636.53</ele>
        <time>2022-01-27T16:23:30Z</time>
      </trkpt>
      <trkpt lat="45.42868" lon="4.36891">
        <ele>635.57</ele>
        <time>2022-01-27T16:23:43Z</time>
      </trkpt>
      <trkpt lat="45.42831" lon="4.36877">
        <ele>632.2</ele>
        <time>2022-01-27T16:23:54Z</time>
      </trkpt>
      <trkpt lat="45.42787" lon="4.36859">
        <ele>629.8</ele>
        <time>2022-01-27T16:24:07Z</time>
      </trkpt>
      <trkpt lat="45.42733" lon="4.36839">
        <ele>626.92</ele>
        <time>2022-01-27T16:24:23Z</time>
      </trkpt>
      <trkpt lat="45.4268" lon="4.36821">
        <ele>624.99</ele>
        <time>2022-01-27T16:24:38Z</time>
      </trkpt>
      <trkpt lat="45.42639" lon="4.36802">
        <ele>623.07</ele>
        <time>2022-01-27T16:24:50Z</time>
      </trkpt>
      <trkpt lat="45.42582" lon="4.36779">
        <ele>620.19</ele>
        <time>2022-01-27T16:25:06Z</time>
      </trkpt>
      <trkpt lat="45.42543" lon="4.36765">
        <ele>618.75</ele>
        <time>2022-01-27T16:25:18Z</time>
      </trkpt>
      <trkpt lat="45.42544" lon="4.36765">
        <ele>619.23</ele>
        <time>2022-01-27T16:25:29Z</time>
      </trkpt>
      <trkpt lat="45.42546" lon="4.36764">
        <ele>619.23</ele>
        <time>2022-01-27T16:25:43Z</time>
      </trkpt>
      <trkpt lat="45.42547" lon="4.36762">
        <ele>619.23</ele>
        <time>2022-01-27T16:25:44Z</time>
      </trkpt>
      <trkpt lat="45.42546" lon="4.36759">
        <ele>619.23</ele>
        <time>2022-01-27T16:25:45Z</time>
      </trkpt>
      <trkpt lat="45.42547" lon="4.36756">
        <ele>619.23</ele>
        <time>2022-01-27T16:25:46Z</time>
      </trkpt>
      <trkpt lat="45.42547" lon="4.36754">
        <ele>619.23</ele>
        <time>2022-01-27T16:25:47Z</time>
      </trkpt>
      <trkpt lat="45.42548" lon="4.36753">
        <ele>619.23</ele>
        <time>2022-01-27T16:25:48Z</time>
      </trkpt>
      <trkpt lat="45.42548" lon="4.36751">
        <ele>619.23</ele>
        <time>2022-01-27T16:25:49Z</time>
      </trkpt>
      <trkpt lat="45.42549" lon="4.36749">
        <ele>619.23</ele>
        <time>2022-01-27T16:25:50Z</time>
      </trkpt>
      <trkpt lat="45.42551" lon="4.36748">
        <ele>619.23</ele>
        <time>2022-01-27T16:25:51Z</time>
      </trkpt>
      <trkpt lat="45.42554" lon="4.36746">
        <ele>619.23</ele>
        <time>2022-01-27T16:25:52Z</time>
      </trkpt>
      <trkpt lat="45.42586" lon="4.36723">
        <ele>622.59</ele>
        <time>2022-01-27T16:26:04Z</time>
      </trkpt>
      <trkpt lat="45.42612" lon="4.3672">
        <ele>625.47</ele>
        <time>2022-01-27T16:26:14Z</time>
      </trkpt>
      <trkpt lat="45.42616" lon="4.36722">
        <ele>625.96</ele>
        <time>2022-01-27T16:26:18Z</time>
      </trkpt>
      <trkpt lat="45.42642" lon="4.3674">
        <ele>628.36</ele>
        <time>2022-01-27T16:26:29Z</time>
      </trkpt>
      <trkpt lat="45.42673" lon="4.3676">
        <ele>630.28</ele>
        <time>2022-01-27T16:26:40Z</time>
      </trkpt>
      <trkpt lat="45.42711" lon="4.36779">
        <ele>632.68</ele>
        <time>2022-01-27T16:26:52Z</time>
      </trkpt>
      <trkpt lat="45.42754" lon="4.36799">
        <ele>634.13</ele>
        <time>2022-01-27T16:27:06Z</time>
      </trkpt>
      <trkpt lat="45.42783" lon="4.36818">
        <ele>635.09</ele>
        <time>2022-01-27T16:27:17Z</time>
      </trkpt>
      <trkpt lat="45.4279" lon="4.36822">
        <ele>636.05</ele>
        <time>2022-01-27T16:27:21Z</time>
      </trkpt>
      <trkpt lat="45.42794" lon="4.36825">
        <ele>636.53</ele>
        <time>2022-01-27T16:27:24Z</time>
      </trkpt>
      <trkpt lat="45.42796" lon="4.36826">
        <ele>636.53</ele>
        <time>2022-01-27T16:27:25Z</time>
      </trkpt>
      <trkpt lat="45.42797" lon="4.36827">
        <ele>637.01</ele>
        <time>2022-01-27T16:27:26Z</time>
      </trkpt>
      <trkpt lat="45.42799" lon="4.36828">
        <ele>637.01</ele>
        <time>2022-01-27T16:27:27Z</time>
      </trkpt>
      <trkpt lat="45.42801" lon="4.36829">
        <ele>637.01</ele>
        <time>2022-01-27T16:27:28Z</time>
      </trkpt>
      <trkpt lat="45.42803" lon="4.3683">
        <ele>637.01</ele>
        <time>2022-01-27T16:27:29Z</time>
      </trkpt>
      <trkpt lat="45.42808" lon="4.36833">
        <ele>637.49</ele>
        <time>2022-01-27T16:27:32Z</time>
      </trkpt>
      <trkpt lat="45.4281" lon="4.36834">
        <ele>637.49</ele>
        <time>2022-01-27T16:27:33Z</time>
      </trkpt>
      <trkpt lat="45.42814" lon="4.36832">
        <ele>638.45</ele>
        <time>2022-01-27T16:27:43Z</time>
      </trkpt>
      <trkpt lat="45.42813" lon="4.36827">
        <ele>638.93</ele>
        <time>2022-01-27T16:28:09Z</time>
      </trkpt>
      <trkpt lat="45.42815" lon="4.36831">
        <ele>638.93</ele>
        <time>2022-01-27T16:28:16Z</time>
      </trkpt>
      <trkpt lat="45.42818" lon="4.36834">
        <ele>638.93</ele>
        <time>2022-01-27T16:28:19Z</time>
      </trkpt>
      <trkpt lat="45.42838" lon="4.36855">
        <ele>639.41</ele>
        <time>2022-01-27T16:28:31Z</time>
      </trkpt>
      <trkpt lat="45.42867" lon="4.36869">
        <ele>641.82</ele>
        <time>2022-01-27T16:28:41Z</time>
      </trkpt>
      <trkpt lat="45.42893" lon="4.36871">
        <ele>644.22</ele>
        <time>2022-01-27T16:28:50Z</time>
      </trkpt>
      <trkpt lat="45.42915" lon="4.36866">
        <ele>646.14</ele>
        <time>2022-01-27T16:29:03Z</time>
      </trkpt>
      <trkpt lat="45.42932" lon="4.36858">
        <ele>647.1</ele>
        <time>2022-01-27T16:29:16Z</time>
      </trkpt>
      <trkpt lat="45.42965" lon="4.36848">
        <ele>648.55</ele>
        <time>2022-01-27T16:29:33Z</time>
      </trkpt>
      <trkpt lat="45.43013" lon="4.36837">
        <ele>649.51</ele>
        <time>2022-01-27T16:29:49Z</time>
      </trkpt>
      <trkpt lat="45.43041" lon="4.36824">
        <ele>646.62</ele>
        <time>2022-01-27T16:30:00Z</time>
      </trkpt>
      <trkpt lat="45.43069" lon="4.3681">
        <ele>644.22</ele>
        <time>2022-01-27T16:30:12Z</time>
      </trkpt>
      <trkpt lat="45.43092" lon="4.36799">
        <ele>643.26</ele>
        <time>2022-01-27T16:30:22Z</time>
      </trkpt>
      <trkpt lat="45.43125" lon="4.36785">
        <ele>640.86</ele>
        <time>2022-01-27T16:30:33Z</time>
      </trkpt>
      <trkpt lat="45.43158" lon="4.36777">
        <ele>638.45</ele>
        <time>2022-01-27T16:30:45Z</time>
      </trkpt>
      <trkpt lat="45.43173" lon="4.36771">
        <ele>637.49</ele>
        <time>2022-01-27T16:30:54Z</time>
      </trkpt>
      <trkpt lat="45.4321" lon="4.36768">
        <ele>637.01</ele>
        <time>2022-01-27T16:31:07Z</time>
      </trkpt>
      <trkpt lat="45.43252" lon="4.36764">
        <ele>634.61</ele>
        <time>2022-01-27T16:31:21Z</time>
      </trkpt>
      <trkpt lat="45.43274" lon="4.36756">
        <ele>635.09</ele>
        <time>2022-01-27T16:31:33Z</time>
      </trkpt>
      <trkpt lat="45.43277" lon="4.36755">
        <ele>635.09</ele>
        <time>2022-01-27T16:31:34Z</time>
      </trkpt>
      <trkpt lat="45.4332" lon="4.36745">
        <ele>635.57</ele>
        <time>2022-01-27T16:31:47Z</time>
      </trkpt>
      <trkpt lat="45.43368" lon="4.36739">
        <ele>636.53</ele>
        <time>2022-01-27T16:32:02Z</time>
      </trkpt>
      <trkpt lat="45.4337" lon="4.3674">
        <ele>636.53</ele>
        <time>2022-01-27T16:32:03Z</time>
      </trkpt>
      <trkpt lat="45.43373" lon="4.3674">
        <ele>636.53</ele>
        <time>2022-01-27T16:32:04Z</time>
      </trkpt>
      <trkpt lat="45.43375" lon="4.36741">
        <ele>636.53</ele>
        <time>2022-01-27T16:32:05Z</time>
      </trkpt>
      <trkpt lat="45.43379" lon="4.36742">
        <ele>636.53</ele>
        <time>2022-01-27T16:32:06Z</time>
      </trkpt>
      <trkpt lat="45.43388" lon="4.36743">
        <ele>635.57</ele>
        <time>2022-01-27T16:32:09Z</time>
      </trkpt>
      <trkpt lat="45.43444" lon="4.36732">
        <ele>634.61</ele>
        <time>2022-01-27T16:32:26Z</time>
      </trkpt>
      <trkpt lat="45.43493" lon="4.3672">
        <ele>632.2</ele>
        <time>2022-01-27T16:32:41Z</time>
      </trkpt>
      <trkpt lat="45.4352" lon="4.36715">
        <ele>628.84</ele>
        <time>2022-01-27T16:32:50Z</time>
      </trkpt>
      <trkpt lat="45.43548" lon="4.36718">
        <ele>625.47</ele>
        <time>2022-01-27T16:32:59Z</time>
      </trkpt>
      <trkpt lat="45.43567" lon="4.36715">
        <ele>622.11</ele>
        <time>2022-01-27T16:33:05Z</time>
      </trkpt>
      <trkpt lat="45.43587" lon="4.36711">
        <ele>618.26</ele>
        <time>2022-01-27T16:33:12Z</time>
      </trkpt>
      <trkpt lat="45.4359" lon="4.36711">
        <ele>618.26</ele>
        <time>2022-01-27T16:33:13Z</time>
      </trkpt>
      <trkpt lat="45.43607" lon="4.36708">
        <ele>614.9</ele>
        <time>2022-01-27T16:33:19Z</time>
      </trkpt>
      <trkpt lat="45.43625" lon="4.36705">
        <ele>612.5</ele>
        <time>2022-01-27T16:33:28Z</time>
      </trkpt>
      <trkpt lat="45.43627" lon="4.36704">
        <ele>612.02</ele>
        <time>2022-01-27T16:33:29Z</time>
      </trkpt>
      <trkpt lat="45.43649" lon="4.36701">
        <ele>608.17</ele>
        <time>2022-01-27T16:33:36Z</time>
      </trkpt>
      <trkpt lat="45.43655" lon="4.36701">
        <ele>607.21</ele>
        <time>2022-01-27T16:33:38Z</time>
      </trkpt>
      <trkpt lat="45.43677" lon="4.36701">
        <ele>603.85</ele>
        <time>2022-01-27T16:33:45Z</time>
      </trkpt>
      <trkpt lat="45.43695" lon="4.36702">
        <ele>600.96</ele>
        <time>2022-01-27T16:33:50Z</time>
      </trkpt>
      <trkpt lat="45.43716" lon="4.36706">
        <ele>597.6</ele>
        <time>2022-01-27T16:33:56Z</time>
      </trkpt>
      <trkpt lat="45.4372" lon="4.36706">
        <ele>597.6</ele>
        <time>2022-01-27T16:33:57Z</time>
      </trkpt>
      <trkpt lat="45.43757" lon="4.36704">
        <ele>594.71</ele>
        <time>2022-01-27T16:34:08Z</time>
      </trkpt>
      <trkpt lat="45.43779" lon="4.36699">
        <ele>590.87</ele>
        <time>2022-01-27T16:34:15Z</time>
      </trkpt>
      <trkpt lat="45.43791" lon="4.36695">
        <ele>588.95</ele>
        <time>2022-01-27T16:34:18Z</time>
      </trkpt>
      <trkpt lat="45.43795" lon="4.36694">
        <ele>588.46</ele>
        <time>2022-01-27T16:34:19Z</time>
      </trkpt>
      <trkpt lat="45.43821" lon="4.36686">
        <ele>585.1</ele>
        <time>2022-01-27T16:34:27Z</time>
      </trkpt>
      <trkpt lat="45.43824" lon="4.36683">
        <ele>585.1</ele>
        <time>2022-01-27T16:34:29Z</time>
      </trkpt>
      <trkpt lat="45.43823" lon="4.36682">
        <ele>585.1</ele>
        <time>2022-01-27T16:34:30Z</time>
      </trkpt>
      <trkpt lat="45.43824" lon="4.36679">
        <ele>585.1</ele>
        <time>2022-01-27T16:34:33Z</time>
      </trkpt>
      <trkpt lat="45.43826" lon="4.36677">
        <ele>585.1</ele>
        <time>2022-01-27T16:34:34Z</time>
      </trkpt>
      <trkpt lat="45.43827" lon="4.36676">
        <ele>584.62</ele>
        <time>2022-01-27T16:34:35Z</time>
      </trkpt>
      <trkpt lat="45.43829" lon="4.36675">
        <ele>584.62</ele>
        <time>2022-01-27T16:34:36Z</time>
      </trkpt>
      <trkpt lat="45.43831" lon="4.36674">
        <ele>584.62</ele>
        <time>2022-01-27T16:34:37Z</time>
      </trkpt>
      <trkpt lat="45.43839" lon="4.36669">
        <ele>585.1</ele>
        <time>2022-01-27T16:34:48Z</time>
      </trkpt>
      <trkpt lat="45.43842" lon="4.36664">
        <ele>585.1</ele>
        <time>2022-01-27T16:35:07Z</time>
      </trkpt>
      <trkpt lat="45.43843" lon="4.36661">
        <ele>585.1</ele>
        <time>2022-01-27T16:35:30Z</time>
      </trkpt>
      <trkpt lat="45.43844" lon="4.3666">
        <ele>585.1</ele>
        <time>2022-01-27T16:35:40Z</time>
      </trkpt>
      <trkpt lat="45.43845" lon="4.36659">
        <ele>585.1</ele>
        <time>2022-01-27T16:35:41Z</time>
      </trkpt>
      <trkpt lat="45.43847" lon="4.36659">
        <ele>584.62</ele>
        <time>2022-01-27T16:35:42Z</time>
      </trkpt>
      <trkpt lat="45.43861" lon="4.36656">
        <ele>584.62</ele>
        <time>2022-01-27T16:35:53Z</time>
      </trkpt>
      <trkpt lat="45.43873" lon="4.36654">
        <ele>584.62</ele>
        <time>2022-01-27T16:36:02Z</time>
      </trkpt>
      <trkpt lat="45.43875" lon="4.36654">
        <ele>584.62</ele>
        <time>2022-01-27T16:36:03Z</time>
      </trkpt>
      <trkpt lat="45.43876" lon="4.36654">
        <ele>584.62</ele>
        <time>2022-01-27T16:36:04Z</time>
      </trkpt>
      <trkpt lat="45.43884" lon="4.36651">
        <ele>584.62</ele>
        <time>2022-01-27T16:36:12Z</time>
      </trkpt>
      <trkpt lat="45.43885" lon="4.36651">
        <ele>584.62</ele>
        <time>2022-01-27T16:36:13Z</time>
      </trkpt>
      <trkpt lat="45.43892" lon="4.36648">
        <ele>584.62</ele>
        <time>2022-01-27T16:36:19Z</time>
      </trkpt>
      <trkpt lat="45.43894" lon="4.36646">
        <ele>584.62</ele>
        <time>2022-01-27T16:36:20Z</time>
      </trkpt>
      <trkpt lat="45.43897" lon="4.36645">
        <ele>584.62</ele>
        <time>2022-01-27T16:36:21Z</time>
      </trkpt>
      <trkpt lat="45.43899" lon="4.36644">
        <ele>584.62</ele>
        <time>2022-01-27T16:36:22Z</time>
      </trkpt>
      <trkpt lat="45.43901" lon="4.36643">
        <ele>584.62</ele>
        <time>2022-01-27T16:36:23Z</time>
      </trkpt>
      <trkpt lat="45.43904" lon="4.36641">
        <ele>584.62</ele>
        <time>2022-01-27T16:36:24Z</time>
      </trkpt>
      <trkpt lat="45.43907" lon="4.36638">
        <ele>584.62</ele>
        <time>2022-01-27T16:36:25Z</time>
      </trkpt>
      <trkpt lat="45.43946" lon="4.36621">
        <ele>584.14</ele>
        <time>2022-01-27T16:36:37Z</time>
      </trkpt>
      <trkpt lat="45.43975" lon="4.366">
        <ele>584.14</ele>
        <time>2022-01-27T16:36:48Z</time>
      </trkpt>
      <trkpt lat="45.44011" lon="4.36578">
        <ele>584.14</ele>
        <time>2022-01-27T16:37:01Z</time>
      </trkpt>
      <trkpt lat="45.44046" lon="4.36565">
        <ele>583.66</ele>
        <time>2022-01-27T16:37:13Z</time>
      </trkpt>
      <trkpt lat="45.44076" lon="4.36554">
        <ele>583.66</ele>
        <time>2022-01-27T16:37:25Z</time>
      </trkpt>
      <trkpt lat="45.44116" lon="4.36528">
        <ele>583.18</ele>
        <time>2022-01-27T16:37:39Z</time>
      </trkpt>
      <trkpt lat="45.44146" lon="4.36513">
        <ele>583.18</ele>
        <time>2022-01-27T16:37:50Z</time>
      </trkpt>
      <trkpt lat="45.44183" lon="4.36495">
        <ele>581.73</ele>
        <time>2022-01-27T16:38:03Z</time>
      </trkpt>
      <trkpt lat="45.44207" lon="4.36489">
        <ele>581.25</ele>
        <time>2022-01-27T16:38:11Z</time>
      </trkpt>
      <trkpt lat="45.44208" lon="4.36487">
        <ele>581.25</ele>
        <time>2022-01-27T16:38:12Z</time>
      </trkpt>
      <trkpt lat="45.44209" lon="4.36485">
        <ele>581.25</ele>
        <time>2022-01-27T16:38:13Z</time>
      </trkpt>
      <trkpt lat="45.4421" lon="4.36483">
        <ele>581.25</ele>
        <time>2022-01-27T16:38:14Z</time>
      </trkpt>
      <trkpt lat="45.44212" lon="4.36481">
        <ele>581.25</ele>
        <time>2022-01-27T16:38:15Z</time>
      </trkpt>
      <trkpt lat="45.44213" lon="4.3648">
        <ele>581.25</ele>
        <time>2022-01-27T16:38:16Z</time>
      </trkpt>
      <trkpt lat="45.44221" lon="4.36478">
        <ele>580.77</ele>
        <time>2022-01-27T16:38:19Z</time>
      </trkpt>
      <trkpt lat="45.44251" lon="4.3646">
        <ele>579.33</ele>
        <time>2022-01-27T16:38:30Z</time>
      </trkpt>
      <trkpt lat="45.44285" lon="4.3644">
        <ele>576.93</ele>
        <time>2022-01-27T16:38:41Z</time>
      </trkpt>
      <trkpt lat="45.44321" lon="4.36418">
        <ele>575.01</ele>
        <time>2022-01-27T16:38:53Z</time>
      </trkpt>
      <trkpt lat="45.4435" lon="4.36399">
        <ele>573.56</ele>
        <time>2022-01-27T16:39:03Z</time>
      </trkpt>
      <trkpt lat="45.44359" lon="4.36401">
        <ele>573.56</ele>
        <time>2022-01-27T16:39:13Z</time>
      </trkpt>
      <trkpt lat="45.44391" lon="4.36386">
        <ele>571.64</ele>
        <time>2022-01-27T16:39:23Z</time>
      </trkpt>
      <trkpt lat="45.44417" lon="4.36372">
        <ele>570.68</ele>
        <time>2022-01-27T16:39:36Z</time>
      </trkpt>
      <trkpt lat="45.44422" lon="4.36365">
        <ele>570.68</ele>
        <time>2022-01-27T16:39:42Z</time>
      </trkpt>
      <trkpt lat="45.44425" lon="4.36366">
        <ele>570.68</ele>
        <time>2022-01-27T16:39:43Z</time>
      </trkpt>
      <trkpt lat="45.44428" lon="4.36366">
        <ele>570.68</ele>
        <time>2022-01-27T16:39:44Z</time>
      </trkpt>
      <trkpt lat="45.4443" lon="4.36366">
        <ele>570.68</ele>
        <time>2022-01-27T16:39:45Z</time>
      </trkpt>
      <trkpt lat="45.44433" lon="4.36365">
        <ele>570.68</ele>
        <time>2022-01-27T16:39:46Z</time>
      </trkpt>
      <trkpt lat="45.44437" lon="4.36364">
        <ele>570.68</ele>
        <time>2022-01-27T16:39:47Z</time>
      </trkpt>
      <trkpt lat="45.4444" lon="4.36362">
        <ele>570.68</ele>
        <time>2022-01-27T16:39:48Z</time>
      </trkpt>
      <trkpt lat="45.44444" lon="4.36361">
        <ele>570.68</ele>
        <time>2022-01-27T16:39:49Z</time>
      </trkpt>
      <trkpt lat="45.44467" lon="4.36353">
        <ele>572.12</ele>
        <time>2022-01-27T16:39:55Z</time>
      </trkpt>
      <trkpt lat="45.44498" lon="4.36334">
        <ele>573.56</ele>
        <time>2022-01-27T16:40:06Z</time>
      </trkpt>
      <trkpt lat="45.44521" lon="4.36322">
        <ele>574.53</ele>
        <time>2022-01-27T16:40:15Z</time>
      </trkpt>
      <trkpt lat="45.4453" lon="4.36318">
        <ele>574.53</ele>
        <time>2022-01-27T16:40:19Z</time>
      </trkpt>
      <trkpt lat="45.44531" lon="4.36318">
        <ele>574.53</ele>
        <time>2022-01-27T16:40:20Z</time>
      </trkpt>
      <trkpt lat="45.44536" lon="4.36314">
        <ele>574.53</ele>
        <time>2022-01-27T16:40:27Z</time>
      </trkpt>
      <trkpt lat="45.44538" lon="4.36312">
        <ele>574.53</ele>
        <time>2022-01-27T16:40:28Z</time>
      </trkpt>
      <trkpt lat="45.4454" lon="4.3631">
        <ele>574.53</ele>
        <time>2022-01-27T16:40:29Z</time>
      </trkpt>
      <trkpt lat="45.44542" lon="4.3631">
        <ele>574.53</ele>
        <time>2022-01-27T16:40:30Z</time>
      </trkpt>
      <trkpt lat="45.44544" lon="4.36308">
        <ele>574.53</ele>
        <time>2022-01-27T16:40:31Z</time>
      </trkpt>
      <trkpt lat="45.44589" lon="4.36264">
        <ele>573.56</ele>
        <time>2022-01-27T16:40:49Z</time>
      </trkpt>
      <trkpt lat="45.44608" lon="4.36245">
        <ele>575.01</ele>
        <time>2022-01-27T16:40:57Z</time>
      </trkpt>
      <trkpt lat="45.4462" lon="4.36225">
        <ele>575.01</ele>
        <time>2022-01-27T16:41:08Z</time>
      </trkpt>
      <trkpt lat="45.44627" lon="4.36222">
        <ele>575.01</ele>
        <time>2022-01-27T16:41:10Z</time>
      </trkpt>
      <trkpt lat="45.44629" lon="4.36223">
        <ele>575.01</ele>
        <time>2022-01-27T16:41:11Z</time>
      </trkpt>
      <trkpt lat="45.4463" lon="4.36224">
        <ele>575.01</ele>
        <time>2022-01-27T16:41:12Z</time>
      </trkpt>
      <trkpt lat="45.44632" lon="4.36226">
        <ele>575.01</ele>
        <time>2022-01-27T16:41:13Z</time>
      </trkpt>
      <trkpt lat="45.44633" lon="4.36228">
        <ele>575.01</ele>
        <time>2022-01-27T16:41:14Z</time>
      </trkpt>
      <trkpt lat="45.4464" lon="4.36232">
        <ele>574.04</ele>
        <time>2022-01-27T16:41:19Z</time>
      </trkpt>
      <trkpt lat="45.44643" lon="4.36232">
        <ele>573.56</ele>
        <time>2022-01-27T16:41:20Z</time>
      </trkpt>
      <trkpt lat="45.44646" lon="4.36233">
        <ele>573.56</ele>
        <time>2022-01-27T16:41:21Z</time>
      </trkpt>
      <trkpt lat="45.44689" lon="4.36246">
        <ele>571.64</ele>
        <time>2022-01-27T16:41:34Z</time>
      </trkpt>
      <trkpt lat="45.44735" lon="4.36257">
        <ele>570.2</ele>
        <time>2022-01-27T16:41:48Z</time>
      </trkpt>
      <trkpt lat="45.44771" lon="4.36268">
        <ele>569.72</ele>
        <time>2022-01-27T16:42:00Z</time>
      </trkpt>
      <trkpt lat="45.44809" lon="4.36276">
        <ele>568.76</ele>
        <time>2022-01-27T16:42:12Z</time>
      </trkpt>
      <trkpt lat="45.44841" lon="4.36285">
        <ele>568.76</ele>
        <time>2022-01-27T16:42:23Z</time>
      </trkpt>
      <trkpt lat="45.44891" lon="4.363">
        <ele>568.76</ele>
        <time>2022-01-27T16:42:39Z</time>
      </trkpt>
      <trkpt lat="45.44916" lon="4.36308">
        <ele>568.76</ele>
        <time>2022-01-27T16:42:50Z</time>
      </trkpt>
      <trkpt lat="45.44918" lon="4.36309">
        <ele>568.76</ele>
        <time>2022-01-27T16:42:51Z</time>
      </trkpt>
      <trkpt lat="45.44921" lon="4.3631">
        <ele>568.76</ele>
        <time>2022-01-27T16:42:52Z</time>
      </trkpt>
      <trkpt lat="45.44924" lon="4.3631">
        <ele>568.76</ele>
        <time>2022-01-27T16:42:53Z</time>
      </trkpt>
      <trkpt lat="45.44927" lon="4.3631">
        <ele>568.76</ele>
        <time>2022-01-27T16:42:54Z</time>
      </trkpt>
      <trkpt lat="45.44959" lon="4.36318">
        <ele>566.83</ele>
        <time>2022-01-27T16:43:07Z</time>
      </trkpt>
      <trkpt lat="45.4499" lon="4.36334">
        <ele>565.39</ele>
        <time>2022-01-27T16:43:23Z</time>
      </trkpt>
      <trkpt lat="45.45008" lon="4.36377">
        <ele>563.95</ele>
        <time>2022-01-27T16:43:37Z</time>
      </trkpt>
      <trkpt lat="45.45016" lon="4.36406">
        <ele>562.51</ele>
        <time>2022-01-27T16:43:49Z</time>
      </trkpt>
      <trkpt lat="45.45019" lon="4.36418">
        <ele>562.03</ele>
        <time>2022-01-27T16:43:53Z</time>
      </trkpt>
      <trkpt lat="45.45018" lon="4.36421">
        <ele>562.03</ele>
        <time>2022-01-27T16:43:54Z</time>
      </trkpt>
      <trkpt lat="45.45018" lon="4.36424">
        <ele>562.03</ele>
        <time>2022-01-27T16:43:55Z</time>
      </trkpt>
      <trkpt lat="45.45018" lon="4.36427">
        <ele>562.03</ele>
        <time>2022-01-27T16:43:56Z</time>
      </trkpt>
      <trkpt lat="45.45017" lon="4.36429">
        <ele>562.03</ele>
        <time>2022-01-27T16:43:57Z</time>
      </trkpt>
      <trkpt lat="45.45016" lon="4.3643">
        <ele>562.03</ele>
        <time>2022-01-27T16:43:58Z</time>
      </trkpt>
      <trkpt lat="45.45016" lon="4.36432">
        <ele>562.03</ele>
        <time>2022-01-27T16:43:59Z</time>
      </trkpt>
      <trkpt lat="45.45015" lon="4.36434">
        <ele>562.03</ele>
        <time>2022-01-27T16:44:00Z</time>
      </trkpt>
      <trkpt lat="45.45005" lon="4.36446">
        <ele>563.47</ele>
        <time>2022-01-27T16:44:09Z</time>
      </trkpt>
      <trkpt lat="45.45004" lon="4.36448">
        <ele>563.47</ele>
        <time>2022-01-27T16:44:10Z</time>
      </trkpt>
      <trkpt lat="45.45002" lon="4.36455">
        <ele>563.47</ele>
        <time>2022-01-27T16:44:14Z</time>
      </trkpt>
      <trkpt lat="45.45002" lon="4.36459">
        <ele>563.47</ele>
        <time>2022-01-27T16:44:16Z</time>
      </trkpt>
      <trkpt lat="45.45" lon="4.36462">
        <ele>563.47</ele>
        <time>2022-01-27T16:44:17Z</time>
      </trkpt>
      <trkpt lat="45.44999" lon="4.36464">
        <ele>563.47</ele>
        <time>2022-01-27T16:44:18Z</time>
      </trkpt>
      <trkpt lat="45.44997" lon="4.36471">
        <ele>563.47</ele>
        <time>2022-01-27T16:44:24Z</time>
      </trkpt>
      <trkpt lat="45.44996" lon="4.36474">
        <ele>563.47</ele>
        <time>2022-01-27T16:44:25Z</time>
      </trkpt>
      <trkpt lat="45.44996" lon="4.36478">
        <ele>563.47</ele>
        <time>2022-01-27T16:44:26Z</time>
      </trkpt>
      <trkpt lat="45.44997" lon="4.36481">
        <ele>563.47</ele>
        <time>2022-01-27T16:44:27Z</time>
      </trkpt>
      <trkpt lat="45.44998" lon="4.36483">
        <ele>563.47</ele>
        <time>2022-01-27T16:44:28Z</time>
      </trkpt>
      <trkpt lat="45.45" lon="4.36485">
        <ele>563.47</ele>
        <time>2022-01-27T16:44:29Z</time>
      </trkpt>
      <trkpt lat="45.45002" lon="4.36488">
        <ele>563.47</ele>
        <time>2022-01-27T16:44:30Z</time>
      </trkpt>
      <trkpt lat="45.45029" lon="4.36503">
        <ele>562.51</ele>
        <time>2022-01-27T16:44:39Z</time>
      </trkpt>
      <trkpt lat="45.45075" lon="4.36512">
        <ele>561.07</ele>
        <time>2022-01-27T16:44:53Z</time>
      </trkpt>
      <trkpt lat="45.45077" lon="4.36514">
        <ele>561.07</ele>
        <time>2022-01-27T16:44:54Z</time>
      </trkpt>
      <trkpt lat="45.45079" lon="4.36518">
        <ele>561.07</ele>
        <time>2022-01-27T16:44:55Z</time>
      </trkpt>
      <trkpt lat="45.45081" lon="4.3652">
        <ele>561.07</ele>
        <time>2022-01-27T16:44:56Z</time>
      </trkpt>
      <trkpt lat="45.45083" lon="4.36523">
        <ele>561.07</ele>
        <time>2022-01-27T16:44:57Z</time>
      </trkpt>
      <trkpt lat="45.45084" lon="4.36526">
        <ele>562.51</ele>
        <time>2022-01-27T16:44:58Z</time>
      </trkpt>
      <trkpt lat="45.45086" lon="4.3653">
        <ele>562.51</ele>
        <time>2022-01-27T16:44:59Z</time>
      </trkpt>
      <trkpt lat="45.45088" lon="4.36533">
        <ele>562.51</ele>
        <time>2022-01-27T16:45:00Z</time>
      </trkpt>
      <trkpt lat="45.45094" lon="4.36543">
        <ele>563.47</ele>
        <time>2022-01-27T16:45:03Z</time>
      </trkpt>
      <trkpt lat="45.45106" lon="4.36571">
        <ele>565.87</ele>
        <time>2022-01-27T16:45:15Z</time>
      </trkpt>
      <trkpt lat="45.45115" lon="4.36588">
        <ele>566.35</ele>
        <time>2022-01-27T16:45:24Z</time>
      </trkpt>
      <trkpt lat="45.45115" lon="4.3659">
        <ele>566.83</ele>
        <time>2022-01-27T16:45:25Z</time>
      </trkpt>
      <trkpt lat="45.45116" lon="4.36592">
        <ele>566.83</ele>
        <time>2022-01-27T16:45:26Z</time>
      </trkpt>
      <trkpt lat="45.45136" lon="4.36627">
        <ele>568.76</ele>
        <time>2022-01-27T16:45:38Z</time>
      </trkpt>
      <trkpt lat="45.45151" lon="4.36658">
        <ele>571.64</ele>
        <time>2022-01-27T16:45:50Z</time>
      </trkpt>
      <trkpt lat="45.45153" lon="4.3666">
        <ele>571.64</ele>
        <time>2022-01-27T16:45:51Z</time>
      </trkpt>
      <trkpt lat="45.45154" lon="4.36661">
        <ele>571.64</ele>
        <time>2022-01-27T16:45:52Z</time>
      </trkpt>
      <trkpt lat="45.4516" lon="4.36666">
        <ele>571.64</ele>
        <time>2022-01-27T16:45:56Z</time>
      </trkpt>
      <trkpt lat="45.45181" lon="4.36694">
        <ele>573.08</ele>
        <time>2022-01-27T16:46:06Z</time>
      </trkpt>
      <trkpt lat="45.45183" lon="4.36698">
        <ele>573.08</ele>
        <time>2022-01-27T16:46:07Z</time>
      </trkpt>
      <trkpt lat="45.45185" lon="4.36702">
        <ele>573.56</ele>
        <time>2022-01-27T16:46:08Z</time>
      </trkpt>
      <trkpt lat="45.45187" lon="4.36706">
        <ele>573.56</ele>
        <time>2022-01-27T16:46:09Z</time>
      </trkpt>
      <trkpt lat="45.45189" lon="4.3671">
        <ele>574.04</ele>
        <time>2022-01-27T16:46:10Z</time>
      </trkpt>
      <trkpt lat="45.4519" lon="4.36712">
        <ele>574.04</ele>
        <time>2022-01-27T16:46:11Z</time>
      </trkpt>
      <trkpt lat="45.45191" lon="4.36714">
        <ele>574.04</ele>
        <time>2022-01-27T16:46:12Z</time>
      </trkpt>
      <trkpt lat="45.45193" lon="4.36716">
        <ele>575.01</ele>
        <time>2022-01-27T16:46:15Z</time>
      </trkpt>
      <trkpt lat="45.45193" lon="4.36716">
        <ele>575.01</ele>
        <time>2022-01-27T16:46:16Z</time>
      </trkpt>
      <trkpt lat="45.45193" lon="4.36715">
        <ele>575.01</ele>
        <time>2022-01-27T16:46:17Z</time>
      </trkpt>
      <trkpt lat="45.45169" lon="4.36714">
        <ele>576.93</ele>
        <time>2022-01-27T16:46:34Z</time>
      </trkpt>
      <trkpt lat="45.45137" lon="4.36716">
        <ele>580.29</ele>
        <time>2022-01-27T16:46:50Z</time>
      </trkpt>
      <trkpt lat="45.45096" lon="4.3672">
        <ele>583.66</ele>
        <time>2022-01-27T16:47:03Z</time>
      </trkpt>
      <trkpt lat="45.45083" lon="4.3674">
        <ele>586.06</ele>
        <time>2022-01-27T16:47:13Z</time>
      </trkpt>
      <trkpt lat="45.45079" lon="4.36764">
        <ele>589.43</ele>
        <time>2022-01-27T16:47:25Z</time>
      </trkpt>
      <trkpt lat="45.45071" lon="4.36779">
        <ele>592.79</ele>
        <time>2022-01-27T16:47:36Z</time>
      </trkpt>
      <trkpt lat="45.45063" lon="4.36795">
        <ele>595.67</ele>
        <time>2022-01-27T16:47:47Z</time>
      </trkpt>
      <trkpt lat="45.45073" lon="4.36819">
        <ele>599.04</ele>
        <time>2022-01-27T16:48:02Z</time>
      </trkpt>
      <trkpt lat="45.45073" lon="4.36821">
        <ele>599.52</ele>
        <time>2022-01-27T16:48:03Z</time>
      </trkpt>
      <trkpt lat="45.45073" lon="4.36823">
        <ele>599.52</ele>
        <time>2022-01-27T16:48:04Z</time>
      </trkpt>
      <trkpt lat="45.45072" lon="4.36824">
        <ele>599.52</ele>
        <time>2022-01-27T16:48:05Z</time>
      </trkpt>
      <trkpt lat="45.45071" lon="4.36825">
        <ele>600</ele>
        <time>2022-01-27T16:48:06Z</time>
      </trkpt>
      <trkpt lat="45.4507" lon="4.36825">
        <ele>600</ele>
        <time>2022-01-27T16:48:07Z</time>
      </trkpt>
      <trkpt lat="45.45069" lon="4.36826">
        <ele>600</ele>
        <time>2022-01-27T16:48:08Z</time>
      </trkpt>
      <trkpt lat="45.45038" lon="4.36827">
        <ele>601.44</ele>
        <time>2022-01-27T16:48:19Z</time>
      </trkpt>
      <trkpt lat="45.44991" lon="4.36855">
        <ele>602.4</ele>
        <time>2022-01-27T16:48:34Z</time>
      </trkpt>
      <trkpt lat="45.44974" lon="4.36893">
        <ele>605.29</ele>
        <time>2022-01-27T16:48:45Z</time>
      </trkpt>
      <trkpt lat="45.44966" lon="4.36935">
        <ele>609.13</ele>
        <time>2022-01-27T16:48:55Z</time>
      </trkpt>
      <trkpt lat="45.44965" lon="4.36942">
        <ele>609.61</ele>
        <time>2022-01-27T16:48:57Z</time>
      </trkpt>
      <trkpt lat="45.44959" lon="4.36975">
        <ele>612.5</ele>
        <time>2022-01-27T16:49:07Z</time>
      </trkpt>
      <trkpt lat="45.44957" lon="4.37013">
        <ele>615.38</ele>
        <time>2022-01-27T16:49:24Z</time>
      </trkpt>
      <trkpt lat="45.44958" lon="4.3705">
        <ele>617.78</ele>
        <time>2022-01-27T16:49:40Z</time>
      </trkpt>
      <trkpt lat="45.44959" lon="4.37085">
        <ele>619.71</ele>
        <time>2022-01-27T16:49:53Z</time>
      </trkpt>
      <trkpt lat="45.44947" lon="4.37131">
        <ele>618.75</ele>
        <time>2022-01-27T16:50:06Z</time>
      </trkpt>
      <trkpt lat="45.44934" lon="4.37162">
        <ele>615.86</ele>
        <time>2022-01-27T16:50:15Z</time>
      </trkpt>
      <trkpt lat="45.44931" lon="4.37183">
        <ele>614.9</ele>
        <time>2022-01-27T16:50:26Z</time>
      </trkpt>
      <trkpt lat="45.44928" lon="4.37192">
        <ele>613.94</ele>
        <time>2022-01-27T16:50:31Z</time>
      </trkpt>
      <trkpt lat="45.44928" lon="4.37195">
        <ele>613.94</ele>
        <time>2022-01-27T16:50:32Z</time>
      </trkpt>
      <trkpt lat="45.44927" lon="4.37198">
        <ele>613.94</ele>
        <time>2022-01-27T16:50:33Z</time>
      </trkpt>
      <trkpt lat="45.44926" lon="4.372">
        <ele>613.94</ele>
        <time>2022-01-27T16:50:34Z</time>
      </trkpt>
      <trkpt lat="45.44926" lon="4.37203">
        <ele>612.98</ele>
        <time>2022-01-27T16:50:35Z</time>
      </trkpt>
      <trkpt lat="45.44925" lon="4.37207">
        <ele>612.98</ele>
        <time>2022-01-27T16:50:36Z</time>
      </trkpt>
      <trkpt lat="45.44924" lon="4.3721">
        <ele>612.98</ele>
        <time>2022-01-27T16:50:37Z</time>
      </trkpt>
      <trkpt lat="45.44922" lon="4.37214">
        <ele>612.5</ele>
        <time>2022-01-27T16:50:38Z</time>
      </trkpt>
      <trkpt lat="45.44915" lon="4.37231">
        <ele>609.61</ele>
        <time>2022-01-27T16:50:44Z</time>
      </trkpt>
      <trkpt lat="45.44902" lon="4.37273">
        <ele>606.73</ele>
        <time>2022-01-27T16:50:56Z</time>
      </trkpt>
      <trkpt lat="45.44904" lon="4.37278">
        <ele>608.17</ele>
        <time>2022-01-27T16:50:59Z</time>
      </trkpt>
      <trkpt lat="45.44907" lon="4.37284">
        <ele>609.61</ele>
        <time>2022-01-27T16:51:02Z</time>
      </trkpt>
      <trkpt lat="45.44911" lon="4.37299">
        <ele>611.54</ele>
        <time>2022-01-27T16:51:09Z</time>
      </trkpt>
      <trkpt lat="45.44921" lon="4.37321">
        <ele>614.9</ele>
        <time>2022-01-27T16:51:19Z</time>
      </trkpt>
      <trkpt lat="45.44923" lon="4.37322">
        <ele>615.38</ele>
        <time>2022-01-27T16:51:21Z</time>
      </trkpt>
      <trkpt lat="45.44928" lon="4.37324">
        <ele>616.34</ele>
        <time>2022-01-27T16:51:24Z</time>
      </trkpt>
      <trkpt lat="45.44948" lon="4.37322">
        <ele>619.23</ele>
        <time>2022-01-27T16:51:37Z</time>
      </trkpt>
      <trkpt lat="45.44964" lon="4.37313">
        <ele>621.63</ele>
        <time>2022-01-27T16:51:51Z</time>
      </trkpt>
      <trkpt lat="45.4497" lon="4.37308">
        <ele>622.59</ele>
        <time>2022-01-27T16:51:55Z</time>
      </trkpt>
      <trkpt lat="45.44986" lon="4.37295">
        <ele>624.99</ele>
        <time>2022-01-27T16:52:07Z</time>
      </trkpt>
      <trkpt lat="45.45006" lon="4.37285">
        <ele>627.4</ele>
        <time>2022-01-27T16:52:24Z</time>
      </trkpt>
      <trkpt lat="45.45007" lon="4.37283">
        <ele>627.4</ele>
        <time>2022-01-27T16:52:27Z</time>
      </trkpt>
      <trkpt lat="45.45009" lon="4.37274">
        <ele>627.88</ele>
        <time>2022-01-27T16:52:35Z</time>
      </trkpt>
      <trkpt lat="45.45009" lon="4.37286">
        <ele>627.4</ele>
        <time>2022-01-27T16:52:45Z</time>
      </trkpt>
      <trkpt lat="45.45008" lon="4.37278">
        <ele>627.4</ele>
        <time>2022-01-27T16:52:49Z</time>
      </trkpt>
      <trkpt lat="45.45021" lon="4.37251">
        <ele>629.32</ele>
        <time>2022-01-27T16:53:06Z</time>
      </trkpt>
      <trkpt lat="45.45026" lon="4.37246">
        <ele>630.28</ele>
        <time>2022-01-27T16:53:10Z</time>
      </trkpt>
      <trkpt lat="45.45049" lon="4.3723">
        <ele>632.2</ele>
        <time>2022-01-27T16:53:27Z</time>
      </trkpt>
      <trkpt lat="45.45063" lon="4.37243">
        <ele>631.24</ele>
        <time>2022-01-27T16:53:39Z</time>
      </trkpt>
      <trkpt lat="45.45095" lon="4.37243">
        <ele>628.84</ele>
        <time>2022-01-27T16:53:50Z</time>
      </trkpt>
      <trkpt lat="45.45126" lon="4.37226">
        <ele>625.47</ele>
        <time>2022-01-27T16:54:02Z</time>
      </trkpt>
      <trkpt lat="45.45148" lon="4.37217">
        <ele>623.07</ele>
        <time>2022-01-27T16:54:15Z</time>
      </trkpt>
      <trkpt lat="45.4517" lon="4.37226">
        <ele>619.71</ele>
        <time>2022-01-27T16:54:25Z</time>
      </trkpt>
      <trkpt lat="45.45181" lon="4.37231">
        <ele>619.23</ele>
        <time>2022-01-27T16:54:33Z</time>
      </trkpt>
      <trkpt lat="45.45188" lon="4.37236">
        <ele>619.71</ele>
        <time>2022-01-27T16:54:46Z</time>
      </trkpt>
      <trkpt lat="45.45202" lon="4.37248">
        <ele>619.71</ele>
        <time>2022-01-27T16:54:59Z</time>
      </trkpt>
      <trkpt lat="45.45204" lon="4.37254">
        <ele>618.75</ele>
        <time>2022-01-27T16:55:09Z</time>
      </trkpt>
      <trkpt lat="45.45214" lon="4.37269">
        <ele>615.38</ele>
        <time>2022-01-27T16:55:18Z</time>
      </trkpt>
      <trkpt lat="45.45221" lon="4.37277">
        <ele>613.94</ele>
        <time>2022-01-27T16:55:23Z</time>
      </trkpt>
      <trkpt lat="45.45246" lon="4.37285">
        <ele>611.54</ele>
        <time>2022-01-27T16:55:37Z</time>
      </trkpt>
      <trkpt lat="45.45272" lon="4.3729">
        <ele>608.17</ele>
        <time>2022-01-27T16:55:46Z</time>
      </trkpt>
      <trkpt lat="45.45275" lon="4.3729">
        <ele>608.17</ele>
        <time>2022-01-27T16:55:47Z</time>
      </trkpt>
      <trkpt lat="45.45307" lon="4.37294">
        <ele>604.81</ele>
        <time>2022-01-27T16:55:58Z</time>
      </trkpt>
      <trkpt lat="45.45318" lon="4.37295">
        <ele>603.85</ele>
        <time>2022-01-27T16:56:02Z</time>
      </trkpt>
      <trkpt lat="45.45335" lon="4.37291">
        <ele>602.4</ele>
        <time>2022-01-27T16:56:13Z</time>
      </trkpt>
      <trkpt lat="45.45342" lon="4.37291">
        <ele>601.92</ele>
        <time>2022-01-27T16:56:19Z</time>
      </trkpt>
      <trkpt lat="45.45343" lon="4.37292">
        <ele>600.96</ele>
        <time>2022-01-27T16:56:20Z</time>
      </trkpt>
      <trkpt lat="45.45349" lon="4.37298">
        <ele>600.48</ele>
        <time>2022-01-27T16:56:30Z</time>
      </trkpt>
      <trkpt lat="45.45356" lon="4.373">
        <ele>599.52</ele>
        <time>2022-01-27T16:56:36Z</time>
      </trkpt>
      <trkpt lat="45.45358" lon="4.373">
        <ele>598.56</ele>
        <time>2022-01-27T16:56:37Z</time>
      </trkpt>
      <trkpt lat="45.45365" lon="4.37301">
        <ele>597.12</ele>
        <time>2022-01-27T16:56:41Z</time>
      </trkpt>
      <trkpt lat="45.45383" lon="4.37301">
        <ele>593.75</ele>
        <time>2022-01-27T16:56:49Z</time>
      </trkpt>
      <trkpt lat="45.45403" lon="4.37296">
        <ele>590.39</ele>
        <time>2022-01-27T16:56:59Z</time>
      </trkpt>
      <trkpt lat="45.45418" lon="4.37287">
        <ele>587.02</ele>
        <time>2022-01-27T16:57:09Z</time>
      </trkpt>
      <trkpt lat="45.4543" lon="4.37279">
        <ele>584.14</ele>
        <time>2022-01-27T16:57:17Z</time>
      </trkpt>
      <trkpt lat="45.45445" lon="4.37271">
        <ele>580.77</ele>
        <time>2022-01-27T16:57:28Z</time>
      </trkpt>
      <trkpt lat="45.45447" lon="4.3727">
        <ele>579.81</ele>
        <time>2022-01-27T16:57:30Z</time>
      </trkpt>
      <trkpt lat="45.45454" lon="4.37268">
        <ele>578.85</ele>
        <time>2022-01-27T16:57:41Z</time>
      </trkpt>
      <trkpt lat="45.45464" lon="4.37267">
        <ele>575.49</ele>
        <time>2022-01-27T16:57:53Z</time>
      </trkpt>
      <trkpt lat="45.45475" lon="4.37265">
        <ele>572.12</ele>
        <time>2022-01-27T16:58:06Z</time>
      </trkpt>
      <trkpt lat="45.45482" lon="4.37271">
        <ele>571.16</ele>
        <time>2022-01-27T16:58:13Z</time>
      </trkpt>
      <trkpt lat="45.45498" lon="4.37283">
        <ele>569.24</ele>
        <time>2022-01-27T16:58:24Z</time>
      </trkpt>
      <trkpt lat="45.45501" lon="4.37282">
        <ele>569.24</ele>
        <time>2022-01-27T16:58:25Z</time>
      </trkpt>
      <trkpt lat="45.45503" lon="4.37281">
        <ele>569.24</ele>
        <time>2022-01-27T16:58:26Z</time>
      </trkpt>
      <trkpt lat="45.45506" lon="4.37282">
        <ele>569.24</ele>
        <time>2022-01-27T16:58:27Z</time>
      </trkpt>
      <trkpt lat="45.45508" lon="4.37283">
        <ele>569.24</ele>
        <time>2022-01-27T16:58:28Z</time>
      </trkpt>
      <trkpt lat="45.45509" lon="4.37286">
        <ele>568.28</ele>
        <time>2022-01-27T16:58:29Z</time>
      </trkpt>
      <trkpt lat="45.45511" lon="4.37289">
        <ele>568.28</ele>
        <time>2022-01-27T16:58:30Z</time>
      </trkpt>
      <trkpt lat="45.45512" lon="4.37293">
        <ele>567.8</ele>
        <time>2022-01-27T16:58:31Z</time>
      </trkpt>
      <trkpt lat="45.45513" lon="4.37297">
        <ele>567.8</ele>
        <time>2022-01-27T16:58:32Z</time>
      </trkpt>
      <trkpt lat="45.45516" lon="4.37346">
        <ele>563.95</ele>
        <time>2022-01-27T16:58:43Z</time>
      </trkpt>
      <trkpt lat="45.45515" lon="4.37373">
        <ele>561.07</ele>
        <time>2022-01-27T16:58:49Z</time>
      </trkpt>
      <trkpt lat="45.45506" lon="4.37416">
        <ele>557.22</ele>
        <time>2022-01-27T16:58:59Z</time>
      </trkpt>
      <trkpt lat="45.45501" lon="4.37438">
        <ele>555.3</ele>
        <time>2022-01-27T16:59:04Z</time>
      </trkpt>
      <trkpt lat="45.45502" lon="4.37461">
        <ele>551.93</ele>
        <time>2022-01-27T16:59:10Z</time>
      </trkpt>
      <trkpt lat="45.45509" lon="4.37466">
        <ele>550.01</ele>
        <time>2022-01-27T16:59:13Z</time>
      </trkpt>
      <trkpt lat="45.45524" lon="4.37472">
        <ele>546.65</ele>
        <time>2022-01-27T16:59:19Z</time>
      </trkpt>
      <trkpt lat="45.45526" lon="4.37473">
        <ele>546.65</ele>
        <time>2022-01-27T16:59:20Z</time>
      </trkpt>
      <trkpt lat="45.45539" lon="4.37479">
        <ele>543.28</ele>
        <time>2022-01-27T16:59:25Z</time>
      </trkpt>
      <trkpt lat="45.45553" lon="4.37486">
        <ele>539.92</ele>
        <time>2022-01-27T16:59:30Z</time>
      </trkpt>
      <trkpt lat="45.4557" lon="4.37494">
        <ele>536.55</ele>
        <time>2022-01-27T16:59:37Z</time>
      </trkpt>
      <trkpt lat="45.45588" lon="4.375">
        <ele>533.67</ele>
        <time>2022-01-27T16:59:47Z</time>
      </trkpt>
      <trkpt lat="45.45591" lon="4.37499">
        <ele>532.71</ele>
        <time>2022-01-27T16:59:49Z</time>
      </trkpt>
      <trkpt lat="45.45592" lon="4.37496">
        <ele>532.71</ele>
        <time>2022-01-27T16:59:50Z</time>
      </trkpt>
      <trkpt lat="45.45595" lon="4.37492">
        <ele>533.19</ele>
        <time>2022-01-27T16:59:59Z</time>
      </trkpt>
      <trkpt lat="45.45597" lon="4.37492">
        <ele>532.23</ele>
        <time>2022-01-27T17:00:00Z</time>
      </trkpt>
      <trkpt lat="45.456" lon="4.3749">
        <ele>532.23</ele>
        <time>2022-01-27T17:00:01Z</time>
      </trkpt>
      <trkpt lat="45.45602" lon="4.37486">
        <ele>532.23</ele>
        <time>2022-01-27T17:00:02Z</time>
      </trkpt>
      <trkpt lat="45.45603" lon="4.37484">
        <ele>532.23</ele>
        <time>2022-01-27T17:00:03Z</time>
      </trkpt>
      <trkpt lat="45.45604" lon="4.3748">
        <ele>532.23</ele>
        <time>2022-01-27T17:00:04Z</time>
      </trkpt>
      <trkpt lat="45.45606" lon="4.37476">
        <ele>532.23</ele>
        <time>2022-01-27T17:00:05Z</time>
      </trkpt>
      <trkpt lat="45.45615" lon="4.37455">
        <ele>531.75</ele>
        <time>2022-01-27T17:00:12Z</time>
      </trkpt>
      <trkpt lat="45.45616" lon="4.37453">
        <ele>531.75</ele>
        <time>2022-01-27T17:00:13Z</time>
      </trkpt>
      <trkpt lat="45.45619" lon="4.3745">
        <ele>531.75</ele>
        <time>2022-01-27T17:00:16Z</time>
      </trkpt>
      <trkpt lat="45.45621" lon="4.37448">
        <ele>531.27</ele>
        <time>2022-01-27T17:00:17Z</time>
      </trkpt>
      <trkpt lat="45.45623" lon="4.37446">
        <ele>531.27</ele>
        <time>2022-01-27T17:00:18Z</time>
      </trkpt>
      <trkpt lat="45.45625" lon="4.37445">
        <ele>530.79</ele>
        <time>2022-01-27T17:00:19Z</time>
      </trkpt>
      <trkpt lat="45.45627" lon="4.37445">
        <ele>530.79</ele>
        <time>2022-01-27T17:00:20Z</time>
      </trkpt>
      <trkpt lat="45.45629" lon="4.37445">
        <ele>530.79</ele>
        <time>2022-01-27T17:00:21Z</time>
      </trkpt>
      <trkpt lat="45.45631" lon="4.37447">
        <ele>530.3</ele>
        <time>2022-01-27T17:00:22Z</time>
      </trkpt>
      <trkpt lat="45.45632" lon="4.37448">
        <ele>530.3</ele>
        <time>2022-01-27T17:00:23Z</time>
      </trkpt>
      <trkpt lat="45.45646" lon="4.37459">
        <ele>528.86</ele>
        <time>2022-01-27T17:00:29Z</time>
      </trkpt>
      <trkpt lat="45.45648" lon="4.37459">
        <ele>528.86</ele>
        <time>2022-01-27T17:00:30Z</time>
      </trkpt>
      <trkpt lat="45.4565" lon="4.37457">
        <ele>528.38</ele>
        <time>2022-01-27T17:00:31Z</time>
      </trkpt>
      <trkpt lat="45.45653" lon="4.37449">
        <ele>527.9</ele>
        <time>2022-01-27T17:00:33Z</time>
      </trkpt>
      <trkpt lat="45.45653" lon="4.37417">
        <ele>524.06</ele>
        <time>2022-01-27T17:00:42Z</time>
      </trkpt>
      <trkpt lat="45.45655" lon="4.3741">
        <ele>522.61</ele>
        <time>2022-01-27T17:00:44Z</time>
      </trkpt>
      <trkpt lat="45.45656" lon="4.37409">
        <ele>522.13</ele>
        <time>2022-01-27T17:00:45Z</time>
      </trkpt>
      <trkpt lat="45.45659" lon="4.37409">
        <ele>521.65</ele>
        <time>2022-01-27T17:00:46Z</time>
      </trkpt>
      <trkpt lat="45.45662" lon="4.3741">
        <ele>521.17</ele>
        <time>2022-01-27T17:00:47Z</time>
      </trkpt>
      <trkpt lat="45.45665" lon="4.37412">
        <ele>521.17</ele>
        <time>2022-01-27T17:00:48Z</time>
      </trkpt>
      <trkpt lat="45.45667" lon="4.37412">
        <ele>521.17</ele>
        <time>2022-01-27T17:00:49Z</time>
      </trkpt>
      <trkpt lat="45.45669" lon="4.37413">
        <ele>520.69</ele>
        <time>2022-01-27T17:00:50Z</time>
      </trkpt>
      <trkpt lat="45.45672" lon="4.37414">
        <ele>520.69</ele>
        <time>2022-01-27T17:00:51Z</time>
      </trkpt>
      <trkpt lat="45.45675" lon="4.37414">
        <ele>520.69</ele>
        <time>2022-01-27T17:00:52Z</time>
      </trkpt>
      <trkpt lat="45.45732" lon="4.37413">
        <ele>520.21</ele>
        <time>2022-01-27T17:01:08Z</time>
      </trkpt>
      <trkpt lat="45.45785" lon="4.37413">
        <ele>518.77</ele>
        <time>2022-01-27T17:01:23Z</time>
      </trkpt>
      <trkpt lat="45.4581" lon="4.37412">
        <ele>518.29</ele>
        <time>2022-01-27T17:01:33Z</time>
      </trkpt>
      <trkpt lat="45.45812" lon="4.37411">
        <ele>518.29</ele>
        <time>2022-01-27T17:01:34Z</time>
      </trkpt>
      <trkpt lat="45.45814" lon="4.3741">
        <ele>518.29</ele>
        <time>2022-01-27T17:01:35Z</time>
      </trkpt>
      <trkpt lat="45.45816" lon="4.37409">
        <ele>518.29</ele>
        <time>2022-01-27T17:01:36Z</time>
      </trkpt>
      <trkpt lat="45.45819" lon="4.37409">
        <ele>518.29</ele>
        <time>2022-01-27T17:01:37Z</time>
      </trkpt>
      <trkpt lat="45.45867" lon="4.37391">
        <ele>518.77</ele>
        <time>2022-01-27T17:01:51Z</time>
      </trkpt>
      <trkpt lat="45.45909" lon="4.37367">
        <ele>515.88</ele>
        <time>2022-01-27T17:02:04Z</time>
      </trkpt>
      <trkpt lat="45.45943" lon="4.37341">
        <ele>512.52</ele>
        <time>2022-01-27T17:02:15Z</time>
      </trkpt>
      <trkpt lat="45.45985" lon="4.37311">
        <ele>510.12</ele>
        <time>2022-01-27T17:02:28Z</time>
      </trkpt>
      <trkpt lat="45.46025" lon="4.37282">
        <ele>507.71</ele>
        <time>2022-01-27T17:02:41Z</time>
      </trkpt>
      <trkpt lat="45.46064" lon="4.37258">
        <ele>504.35</ele>
        <time>2022-01-27T17:02:53Z</time>
      </trkpt>
      <trkpt lat="45.461" lon="4.37246">
        <ele>505.31</ele>
        <time>2022-01-27T17:03:06Z</time>
      </trkpt>
      <trkpt lat="45.46116" lon="4.37247">
        <ele>508.67</ele>
        <time>2022-01-27T17:03:19Z</time>
      </trkpt>
      <trkpt lat="45.4612" lon="4.37247">
        <ele>508.67</ele>
        <time>2022-01-27T17:03:22Z</time>
      </trkpt>
      <trkpt lat="45.46122" lon="4.37247">
        <ele>508.67</ele>
        <time>2022-01-27T17:03:23Z</time>
      </trkpt>
      <trkpt lat="45.46147" lon="4.37245">
        <ele>508.67</ele>
        <time>2022-01-27T17:03:40Z</time>
      </trkpt>
      <trkpt lat="45.46182" lon="4.37241">
        <ele>507.23</ele>
        <time>2022-01-27T17:03:52Z</time>
      </trkpt>
      <trkpt lat="45.46206" lon="4.37252">
        <ele>508.67</ele>
        <time>2022-01-27T17:04:02Z</time>
      </trkpt>
      <trkpt lat="45.46208" lon="4.37253">
        <ele>508.67</ele>
        <time>2022-01-27T17:04:03Z</time>
      </trkpt>
      <trkpt lat="45.46238" lon="4.37282">
        <ele>511.08</ele>
        <time>2022-01-27T17:04:15Z</time>
      </trkpt>
      <trkpt lat="45.46275" lon="4.37327">
        <ele>512.04</ele>
        <time>2022-01-27T17:04:27Z</time>
      </trkpt>
      <trkpt lat="45.46286" lon="4.37378">
        <ele>512.04</ele>
        <time>2022-01-27T17:04:38Z</time>
      </trkpt>
      <trkpt lat="45.46288" lon="4.37441">
        <ele>509.64</ele>
        <time>2022-01-27T17:04:52Z</time>
      </trkpt>
      <trkpt lat="45.46293" lon="4.37462">
        <ele>506.27</ele>
        <time>2022-01-27T17:04:57Z</time>
      </trkpt>
      <trkpt lat="45.46298" lon="4.37482">
        <ele>502.91</ele>
        <time>2022-01-27T17:05:02Z</time>
      </trkpt>
      <trkpt lat="45.46308" lon="4.37503">
        <ele>499.54</ele>
        <time>2022-01-27T17:05:08Z</time>
      </trkpt>
      <trkpt lat="45.46317" lon="4.3752">
        <ele>496.18</ele>
        <time>2022-01-27T17:05:13Z</time>
      </trkpt>
      <trkpt lat="45.46324" lon="4.37534">
        <ele>494.26</ele>
        <time>2022-01-27T17:05:17Z</time>
      </trkpt>
      <trkpt lat="45.46332" lon="4.37549">
        <ele>490.89</ele>
        <time>2022-01-27T17:05:21Z</time>
      </trkpt>
      <trkpt lat="45.46351" lon="4.37567">
        <ele>487.53</ele>
        <time>2022-01-27T17:05:28Z</time>
      </trkpt>
      <trkpt lat="45.46354" lon="4.37567">
        <ele>487.53</ele>
        <time>2022-01-27T17:05:29Z</time>
      </trkpt>
      <trkpt lat="45.46359" lon="4.37569">
        <ele>486.56</ele>
        <time>2022-01-27T17:05:32Z</time>
      </trkpt>
      <trkpt lat="45.4636" lon="4.37571">
        <ele>487.05</ele>
        <time>2022-01-27T17:05:35Z</time>
      </trkpt>
      <trkpt lat="45.46362" lon="4.37571">
        <ele>486.56</ele>
        <time>2022-01-27T17:05:36Z</time>
      </trkpt>
      <trkpt lat="45.46363" lon="4.37571">
        <ele>486.56</ele>
        <time>2022-01-27T17:05:37Z</time>
      </trkpt>
      <trkpt lat="45.46393" lon="4.37582">
        <ele>485.12</ele>
        <time>2022-01-27T17:05:50Z</time>
      </trkpt>
      <trkpt lat="45.46427" lon="4.37588">
        <ele>482.72</ele>
        <time>2022-01-27T17:06:03Z</time>
      </trkpt>
      <trkpt lat="45.46437" lon="4.37593">
        <ele>481.76</ele>
        <time>2022-01-27T17:06:09Z</time>
      </trkpt>
      <trkpt lat="45.46438" lon="4.37594">
        <ele>481.76</ele>
        <time>2022-01-27T17:06:10Z</time>
      </trkpt>
      <trkpt lat="45.46445" lon="4.37636">
        <ele>478.87</ele>
        <time>2022-01-27T17:06:21Z</time>
      </trkpt>
      <trkpt lat="45.46454" lon="4.37679">
        <ele>475.51</ele>
        <time>2022-01-27T17:06:31Z</time>
      </trkpt>
      <trkpt lat="45.46461" lon="4.37728">
        <ele>472.63</ele>
        <time>2022-01-27T17:06:44Z</time>
      </trkpt>
      <trkpt lat="45.46467" lon="4.37779">
        <ele>472.14</ele>
        <time>2022-01-27T17:06:58Z</time>
      </trkpt>
      <trkpt lat="45.46476" lon="4.37817">
        <ele>471.18</ele>
        <time>2022-01-27T17:07:10Z</time>
      </trkpt>
      <trkpt lat="45.46479" lon="4.37834">
        <ele>471.18</ele>
        <time>2022-01-27T17:07:15Z</time>
      </trkpt>
      <trkpt lat="45.4648" lon="4.37836">
        <ele>471.18</ele>
        <time>2022-01-27T17:07:16Z</time>
      </trkpt>
      <trkpt lat="45.46481" lon="4.3784">
        <ele>471.18</ele>
        <time>2022-01-27T17:07:26Z</time>
      </trkpt>
      <trkpt lat="45.46482" lon="4.37845">
        <ele>471.18</ele>
        <time>2022-01-27T17:07:40Z</time>
      </trkpt>
      <trkpt lat="45.46479" lon="4.37846">
        <ele>471.18</ele>
        <time>2022-01-27T17:07:42Z</time>
      </trkpt>
      <trkpt lat="45.46478" lon="4.37848">
        <ele>471.18</ele>
        <time>2022-01-27T17:07:43Z</time>
      </trkpt>
      <trkpt lat="45.46477" lon="4.37849">
        <ele>471.18</ele>
        <time>2022-01-27T17:07:44Z</time>
      </trkpt>
      <trkpt lat="45.46475" lon="4.3785">
        <ele>471.18</ele>
        <time>2022-01-27T17:07:45Z</time>
      </trkpt>
      <trkpt lat="45.46474" lon="4.37851">
        <ele>471.18</ele>
        <time>2022-01-27T17:07:46Z</time>
      </trkpt>
      <trkpt lat="45.46464" lon="4.37864">
        <ele>471.66</ele>
        <time>2022-01-27T17:08:00Z</time>
      </trkpt>
      <trkpt lat="45.46448" lon="4.37882">
        <ele>471.66</ele>
        <time>2022-01-27T17:08:09Z</time>
      </trkpt>
      <trkpt lat="45.46408" lon="4.37928">
        <ele>470.7</ele>
        <time>2022-01-27T17:08:25Z</time>
      </trkpt>
      <trkpt lat="45.46371" lon="4.37974">
        <ele>469.26</ele>
        <time>2022-01-27T17:08:39Z</time>
      </trkpt>
      <trkpt lat="45.46335" lon="4.38009">
        <ele>468.78</ele>
        <time>2022-01-27T17:08:52Z</time>
      </trkpt>
      <trkpt lat="45.46294" lon="4.38035">
        <ele>469.26</ele>
        <time>2022-01-27T17:09:05Z</time>
      </trkpt>
      <trkpt lat="45.46273" lon="4.38046">
        <ele>470.7</ele>
        <time>2022-01-27T17:09:13Z</time>
      </trkpt>
      <trkpt lat="45.46267" lon="4.38048">
        <ele>470.7</ele>
        <time>2022-01-27T17:09:17Z</time>
      </trkpt>
      <trkpt lat="45.46265" lon="4.38048">
        <ele>470.7</ele>
        <time>2022-01-27T17:09:18Z</time>
      </trkpt>
      <trkpt lat="45.4624" lon="4.38061">
        <ele>471.18</ele>
        <time>2022-01-27T17:09:28Z</time>
      </trkpt>
      <trkpt lat="45.46206" lon="4.3808">
        <ele>471.66</ele>
        <time>2022-01-27T17:09:39Z</time>
      </trkpt>
      <trkpt lat="45.46173" lon="4.38092">
        <ele>472.63</ele>
        <time>2022-01-27T17:09:52Z</time>
      </trkpt>
      <trkpt lat="45.46147" lon="4.38094">
        <ele>473.11</ele>
        <time>2022-01-27T17:10:03Z</time>
      </trkpt>
      <trkpt lat="45.46134" lon="4.3809">
        <ele>473.59</ele>
        <time>2022-01-27T17:10:09Z</time>
      </trkpt>
      <trkpt lat="45.46101" lon="4.38092">
        <ele>474.07</ele>
        <time>2022-01-27T17:10:20Z</time>
      </trkpt>
      <trkpt lat="45.46081" lon="4.38094">
        <ele>474.07</ele>
        <time>2022-01-27T17:10:26Z</time>
      </trkpt>
      <trkpt lat="45.46077" lon="4.38095">
        <ele>474.07</ele>
        <time>2022-01-27T17:10:27Z</time>
      </trkpt>
      <trkpt lat="45.46066" lon="4.38099">
        <ele>474.55</ele>
        <time>2022-01-27T17:10:31Z</time>
      </trkpt>
      <trkpt lat="45.46065" lon="4.38101">
        <ele>474.55</ele>
        <time>2022-01-27T17:10:32Z</time>
      </trkpt>
      <trkpt lat="45.46063" lon="4.38102">
        <ele>475.03</ele>
        <time>2022-01-27T17:10:33Z</time>
      </trkpt>
      <trkpt lat="45.4606" lon="4.38104">
        <ele>475.03</ele>
        <time>2022-01-27T17:10:34Z</time>
      </trkpt>
      <trkpt lat="45.46057" lon="4.38104">
        <ele>475.03</ele>
        <time>2022-01-27T17:10:35Z</time>
      </trkpt>
      <trkpt lat="45.46054" lon="4.38105">
        <ele>474.55</ele>
        <time>2022-01-27T17:10:36Z</time>
      </trkpt>
      <trkpt lat="45.4605" lon="4.38106">
        <ele>474.55</ele>
        <time>2022-01-27T17:10:37Z</time>
      </trkpt>
      <trkpt lat="45.46047" lon="4.38107">
        <ele>474.55</ele>
        <time>2022-01-27T17:10:38Z</time>
      </trkpt>
      <trkpt lat="45.46044" lon="4.38109">
        <ele>474.55</ele>
        <time>2022-01-27T17:10:39Z</time>
      </trkpt>
      <trkpt lat="45.46042" lon="4.38111">
        <ele>475.51</ele>
        <time>2022-01-27T17:10:40Z</time>
      </trkpt>
      <trkpt lat="45.46039" lon="4.38113">
        <ele>475.51</ele>
        <time>2022-01-27T17:10:41Z</time>
      </trkpt>
      <trkpt lat="45.46035" lon="4.38115">
        <ele>475.51</ele>
        <time>2022-01-27T17:10:42Z</time>
      </trkpt>
      <trkpt lat="45.45992" lon="4.38133">
        <ele>475.99</ele>
        <time>2022-01-27T17:10:54Z</time>
      </trkpt>
      <trkpt lat="45.45959" lon="4.38142">
        <ele>476.95</ele>
        <time>2022-01-27T17:11:05Z</time>
      </trkpt>
      <trkpt lat="45.45925" lon="4.38142">
        <ele>476.95</ele>
        <time>2022-01-27T17:11:15Z</time>
      </trkpt>
      <trkpt lat="45.4591" lon="4.38143">
        <ele>476.95</ele>
        <time>2022-01-27T17:11:20Z</time>
      </trkpt>
      <trkpt lat="45.45907" lon="4.38142">
        <ele>476.95</ele>
        <time>2022-01-27T17:11:21Z</time>
      </trkpt>
      <trkpt lat="45.45905" lon="4.38145">
        <ele>476.95</ele>
        <time>2022-01-27T17:11:22Z</time>
      </trkpt>
      <trkpt lat="45.45903" lon="4.38147">
        <ele>476.95</ele>
        <time>2022-01-27T17:11:23Z</time>
      </trkpt>
      <trkpt lat="45.45889" lon="4.38165">
        <ele>476.95</ele>
        <time>2022-01-27T17:11:30Z</time>
      </trkpt>
      <trkpt lat="45.45886" lon="4.38169">
        <ele>476.95</ele>
        <time>2022-01-27T17:11:31Z</time>
      </trkpt>
      <trkpt lat="45.45884" lon="4.38172">
        <ele>476.95</ele>
        <time>2022-01-27T17:11:32Z</time>
      </trkpt>
      <trkpt lat="45.45882" lon="4.38174">
        <ele>476.95</ele>
        <time>2022-01-27T17:11:33Z</time>
      </trkpt>
      <trkpt lat="45.45879" lon="4.38177">
        <ele>476.95</ele>
        <time>2022-01-27T17:11:34Z</time>
      </trkpt>
      <trkpt lat="45.45877" lon="4.38179">
        <ele>476.95</ele>
        <time>2022-01-27T17:11:35Z</time>
      </trkpt>
      <trkpt lat="45.45874" lon="4.38182">
        <ele>476.95</ele>
        <time>2022-01-27T17:11:36Z</time>
      </trkpt>
      <trkpt lat="45.45871" lon="4.38185">
        <ele>476.95</ele>
        <time>2022-01-27T17:11:37Z</time>
      </trkpt>
      <trkpt lat="45.45868" lon="4.38188">
        <ele>476.95</ele>
        <time>2022-01-27T17:11:38Z</time>
      </trkpt>
      <trkpt lat="45.45841" lon="4.38206">
        <ele>476.95</ele>
        <time>2022-01-27T17:11:49Z</time>
      </trkpt>
      <trkpt lat="45.45838" lon="4.38206">
        <ele>476.95</ele>
        <time>2022-01-27T17:11:52Z</time>
      </trkpt>
      <trkpt lat="45.45833" lon="4.38206">
        <ele>476.47</ele>
        <time>2022-01-27T17:11:56Z</time>
      </trkpt>
      <trkpt lat="45.45832" lon="4.38205">
        <ele>476.47</ele>
        <time>2022-01-27T17:11:57Z</time>
      </trkpt>
      <trkpt lat="45.45829" lon="4.38205">
        <ele>476.47</ele>
        <time>2022-01-27T17:11:58Z</time>
      </trkpt>
      <trkpt lat="45.45827" lon="4.38205">
        <ele>476.47</ele>
        <time>2022-01-27T17:11:59Z</time>
      </trkpt>
      <trkpt lat="45.45824" lon="4.38205">
        <ele>476.47</ele>
        <time>2022-01-27T17:12:00Z</time>
      </trkpt>
      <trkpt lat="45.45821" lon="4.38205">
        <ele>476.47</ele>
        <time>2022-01-27T17:12:01Z</time>
      </trkpt>
      <trkpt lat="45.45789" lon="4.38201">
        <ele>476.47</ele>
        <time>2022-01-27T17:12:13Z</time>
      </trkpt>
      <trkpt lat="45.4576" lon="4.38207">
        <ele>476.47</ele>
        <time>2022-01-27T17:12:25Z</time>
      </trkpt>
      <trkpt lat="45.45725" lon="4.38205">
        <ele>476.47</ele>
        <time>2022-01-27T17:12:36Z</time>
      </trkpt>
      <trkpt lat="45.45701" lon="4.38217">
        <ele>476.95</ele>
        <time>2022-01-27T17:12:45Z</time>
      </trkpt>
      <trkpt lat="45.45682" lon="4.38221">
        <ele>476.95</ele>
        <time>2022-01-27T17:12:55Z</time>
      </trkpt>
      <trkpt lat="45.45661" lon="4.38226">
        <ele>476.95</ele>
        <time>2022-01-27T17:13:06Z</time>
      </trkpt>
      <trkpt lat="45.4563" lon="4.38236">
        <ele>477.43</ele>
        <time>2022-01-27T17:13:17Z</time>
      </trkpt>
      <trkpt lat="45.45605" lon="4.38242">
        <ele>477.43</ele>
        <time>2022-01-27T17:13:27Z</time>
      </trkpt>
      <trkpt lat="45.45599" lon="4.38243">
        <ele>476.95</ele>
        <time>2022-01-27T17:13:30Z</time>
      </trkpt>
      <trkpt lat="45.45591" lon="4.38243">
        <ele>476.95</ele>
        <time>2022-01-27T17:13:35Z</time>
      </trkpt>
      <trkpt lat="45.45589" lon="4.38242">
        <ele>476.95</ele>
        <time>2022-01-27T17:13:36Z</time>
      </trkpt>
      <trkpt lat="45.45588" lon="4.38242">
        <ele>476.95</ele>
        <time>2022-01-27T17:13:37Z</time>
      </trkpt>
      <trkpt lat="45.45575" lon="4.38249">
        <ele>476.95</ele>
        <time>2022-01-27T17:13:51Z</time>
      </trkpt>
      <trkpt lat="45.45573" lon="4.3825">
        <ele>476.95</ele>
        <time>2022-01-27T17:13:52Z</time>
      </trkpt>
      <trkpt lat="45.45552" lon="4.38259">
        <ele>476.95</ele>
        <time>2022-01-27T17:14:05Z</time>
      </trkpt>
      <trkpt lat="45.45548" lon="4.38259">
        <ele>476.95</ele>
        <time>2022-01-27T17:14:08Z</time>
      </trkpt>
      <trkpt lat="45.45546" lon="4.38259">
        <ele>476.95</ele>
        <time>2022-01-27T17:14:09Z</time>
      </trkpt>
      <trkpt lat="45.45545" lon="4.38259">
        <ele>476.95</ele>
        <time>2022-01-27T17:14:10Z</time>
      </trkpt>
      <trkpt lat="45.45543" lon="4.38258">
        <ele>476.95</ele>
        <time>2022-01-27T17:14:11Z</time>
      </trkpt>
      <trkpt lat="45.4554" lon="4.38259">
        <ele>476.95</ele>
        <time>2022-01-27T17:14:12Z</time>
      </trkpt>
      <trkpt lat="45.45506" lon="4.38256">
        <ele>476.95</ele>
        <time>2022-01-27T17:14:24Z</time>
      </trkpt>
      <trkpt lat="45.45491" lon="4.38259">
        <ele>476.95</ele>
        <time>2022-01-27T17:14:29Z</time>
      </trkpt>
      <trkpt lat="45.45488" lon="4.3826">
        <ele>476.47</ele>
        <time>2022-01-27T17:14:30Z</time>
      </trkpt>
      <trkpt lat="45.45485" lon="4.3826">
        <ele>476.95</ele>
        <time>2022-01-27T17:14:31Z</time>
      </trkpt>
      <trkpt lat="45.45482" lon="4.3826">
        <ele>476.47</ele>
        <time>2022-01-27T17:14:32Z</time>
      </trkpt>
      <trkpt lat="45.45478" lon="4.38261">
        <ele>477.43</ele>
        <time>2022-01-27T17:14:33Z</time>
      </trkpt>
      <trkpt lat="45.4545" lon="4.38268">
        <ele>477.43</ele>
        <time>2022-01-27T17:14:44Z</time>
      </trkpt>
      <trkpt lat="45.45425" lon="4.38275">
        <ele>477.43</ele>
        <time>2022-01-27T17:14:54Z</time>
      </trkpt>
      <trkpt lat="45.45401" lon="4.38274">
        <ele>477.43</ele>
        <time>2022-01-27T17:15:03Z</time>
      </trkpt>
      <trkpt lat="45.45399" lon="4.38273">
        <ele>477.43</ele>
        <time>2022-01-27T17:15:04Z</time>
      </trkpt>
      <trkpt lat="45.45399" lon="4.38271">
        <ele>477.43</ele>
        <time>2022-01-27T17:15:05Z</time>
      </trkpt>
      <trkpt lat="45.45398" lon="4.38268">
        <ele>476.95</ele>
        <time>2022-01-27T17:15:06Z</time>
      </trkpt>
      <trkpt lat="45.45397" lon="4.38266">
        <ele>476.95</ele>
        <time>2022-01-27T17:15:07Z</time>
      </trkpt>
      <trkpt lat="45.45398" lon="4.38242">
        <ele>477.43</ele>
        <time>2022-01-27T17:15:17Z</time>
      </trkpt>
      <trkpt lat="45.45402" lon="4.38204">
        <ele>477.43</ele>
        <time>2022-01-27T17:15:28Z</time>
      </trkpt>
      <trkpt lat="45.45404" lon="4.38169">
        <ele>477.43</ele>
        <time>2022-01-27T17:15:39Z</time>
      </trkpt>
      <trkpt lat="45.45403" lon="4.38125">
        <ele>478.87</ele>
        <time>2022-01-27T17:15:49Z</time>
      </trkpt>
      <trkpt lat="45.45405" lon="4.38068">
        <ele>481.28</ele>
        <time>2022-01-27T17:16:02Z</time>
      </trkpt>
      <trkpt lat="45.45406" lon="4.38037">
        <ele>484.64</ele>
        <time>2022-01-27T17:16:11Z</time>
      </trkpt>
      <trkpt lat="45.45405" lon="4.38016">
        <ele>487.05</ele>
        <time>2022-01-27T17:16:17Z</time>
      </trkpt>
      <trkpt lat="45.45407" lon="4.38003">
        <ele>488.97</ele>
        <time>2022-01-27T17:16:21Z</time>
      </trkpt>
      <trkpt lat="45.45406" lon="4.38">
        <ele>489.45</ele>
        <time>2022-01-27T17:16:22Z</time>
      </trkpt>
      <trkpt lat="45.45404" lon="4.37997">
        <ele>489.93</ele>
        <time>2022-01-27T17:16:23Z</time>
      </trkpt>
      <trkpt lat="45.45403" lon="4.37994">
        <ele>490.41</ele>
        <time>2022-01-27T17:16:24Z</time>
      </trkpt>
      <trkpt lat="45.45402" lon="4.37991">
        <ele>490.41</ele>
        <time>2022-01-27T17:16:25Z</time>
      </trkpt>
      <trkpt lat="45.45401" lon="4.37986">
        <ele>490.89</ele>
        <time>2022-01-27T17:16:27Z</time>
      </trkpt>
      <trkpt lat="45.45401" lon="4.37983">
        <ele>490.89</ele>
        <time>2022-01-27T17:16:28Z</time>
      </trkpt>
      <trkpt lat="45.45402" lon="4.37981">
        <ele>490.89</ele>
        <time>2022-01-27T17:16:29Z</time>
      </trkpt>
      <trkpt lat="45.45403" lon="4.37979">
        <ele>490.89</ele>
        <time>2022-01-27T17:16:30Z</time>
      </trkpt>
      <trkpt lat="45.45403" lon="4.37976">
        <ele>491.37</ele>
        <time>2022-01-27T17:16:31Z</time>
      </trkpt>
      <trkpt lat="45.45403" lon="4.37973">
        <ele>491.37</ele>
        <time>2022-01-27T17:16:32Z</time>
      </trkpt>
      <trkpt lat="45.45406" lon="4.3796">
        <ele>492.33</ele>
        <time>2022-01-27T17:16:38Z</time>
      </trkpt>
      <trkpt lat="45.45408" lon="4.37959">
        <ele>492.33</ele>
        <time>2022-01-27T17:16:39Z</time>
      </trkpt>
      <trkpt lat="45.45409" lon="4.37957">
        <ele>492.33</ele>
        <time>2022-01-27T17:16:40Z</time>
      </trkpt>
      <trkpt lat="45.45411" lon="4.37955">
        <ele>492.33</ele>
        <time>2022-01-27T17:16:41Z</time>
      </trkpt>
      <trkpt lat="45.45412" lon="4.37952">
        <ele>492.81</ele>
        <time>2022-01-27T17:16:42Z</time>
      </trkpt>
      <trkpt lat="45.45414" lon="4.37949">
        <ele>493.29</ele>
        <time>2022-01-27T17:16:43Z</time>
      </trkpt>
      <trkpt lat="45.45415" lon="4.37947">
        <ele>494.26</ele>
        <time>2022-01-27T17:16:44Z</time>
      </trkpt>
      <trkpt lat="45.45416" lon="4.37944">
        <ele>494.26</ele>
        <time>2022-01-27T17:16:45Z</time>
      </trkpt>
      <trkpt lat="45.45417" lon="4.3794">
        <ele>495.22</ele>
        <time>2022-01-27T17:16:46Z</time>
      </trkpt>
      <trkpt lat="45.45418" lon="4.37937">
        <ele>495.22</ele>
        <time>2022-01-27T17:16:47Z</time>
      </trkpt>
      <trkpt lat="45.45419" lon="4.37934">
        <ele>496.18</ele>
        <time>2022-01-27T17:16:48Z</time>
      </trkpt>
      <trkpt lat="45.4542" lon="4.3793">
        <ele>496.66</ele>
        <time>2022-01-27T17:16:49Z</time>
      </trkpt>
      <trkpt lat="45.4542" lon="4.37926">
        <ele>496.66</ele>
        <time>2022-01-27T17:16:50Z</time>
      </trkpt>
      <trkpt lat="45.45425" lon="4.3791">
        <ele>499.54</ele>
        <time>2022-01-27T17:16:55Z</time>
      </trkpt>
      <trkpt lat="45.45426" lon="4.37908">
        <ele>500.02</ele>
        <time>2022-01-27T17:16:56Z</time>
      </trkpt>
      <trkpt lat="45.45426" lon="4.37903">
        <ele>500.5</ele>
        <time>2022-01-27T17:16:57Z</time>
      </trkpt>
      <trkpt lat="45.45425" lon="4.37899">
        <ele>500.5</ele>
        <time>2022-01-27T17:16:58Z</time>
      </trkpt>
      <trkpt lat="45.45426" lon="4.37893">
        <ele>500.5</ele>
        <time>2022-01-27T17:17:03Z</time>
      </trkpt>
      <trkpt lat="45.45425" lon="4.37887">
        <ele>500.5</ele>
        <time>2022-01-27T17:17:07Z</time>
      </trkpt>
      <trkpt lat="45.45424" lon="4.37886">
        <ele>500.5</ele>
        <time>2022-01-27T17:17:08Z</time>
      </trkpt>
      <trkpt lat="45.45421" lon="4.37877">
        <ele>500.5</ele>
        <time>2022-01-27T17:17:20Z</time>
      </trkpt>
      <trkpt lat="45.45423" lon="4.37871">
        <ele>500.5</ele>
        <time>2022-01-27T17:17:42Z</time>
      </trkpt>
    </trkseg>
  </trk>
</gpx>